Flight Track Log - Related Links

Times and Time Zones

All times are in EDT time to prevent confusion due to time zone crossing. See the CPA254 flight status page for this flight to view local times or setup timezone preferences in your user account.

Time Position Orientation Groundspeed Altitude Reporting Facility
EDT Latitude Longitude Course Direction KTS MPH feet Rate Location/Type
Mon 05:48:48 PM 51.4770 -0.4840 268° West 194 223 200  Level FlightAware ADS-B
Mon 05:49:03 PM 51.4770 -0.5050 270° West 200 230 800 2,700 Climbing FlightAware ADS-B
Mon 05:49:28 PM 51.4769 -0.5449 270° West 207 238 2,000 2,786 Climbing FlightAware ADS-B
Mon 05:49:31 PM 51.4775 -0.5494 282° West 212 244 2,100 857 Climbing FlightAware ADS-B
Mon 05:49:35 PM 51.4784 -0.5549 285° West 214 246 2,100 750 Level FlightAware ADS-B
Mon 05:49:39 PM 51.4801 -0.5614 293° West 218 251 2,200 1,500 Climbing FlightAware ADS-B
Mon 05:49:51 PM 51.4857 -0.5788 297° West 232 267 2,500 1,778 Climbing FlightAware ADS-B
Mon 05:50:06 PM 51.4938 -0.6026 299° West 241 277 3,000 2,357 Climbing FlightAware ADS-B
Mon 05:50:19 PM 51.5008 -0.6235 298° West 243 280 3,600 2,609 Climbing FlightAware ADS-B
Mon 05:50:29 PM 51.5062 -0.6392 299° West 242 278 4,000 2,571 Climbing FlightAware ADS-B
Mon 05:50:33 PM 51.5087 -0.6448 306° West 243 280 4,200 2,571 Climbing FlightAware ADS-B
Mon 05:50:36 PM 51.5109 -0.6489 311° West 244 281 4,300 1,714 Climbing FlightAware ADS-B
Mon 05:50:40 PM 51.5137 -0.6531 317° Northwest 245 282 4,400 1,500 Climbing FlightAware ADS-B
Mon 05:50:44 PM 51.5176 -0.6570 328° Northwest 245 282 4,500 2,250 Climbing FlightAware ADS-B
Mon 05:50:48 PM 51.5216 -0.6596 338° Northwest 246 283 4,700 2,571 Climbing FlightAware ADS-B
Mon 05:50:51 PM 51.5251 -0.6611 345° North 247 284 4,800 2,000 Climbing FlightAware ADS-B
Mon 05:50:54 PM 51.5293 -0.6619 354° North 248 285 4,900 2,000 Climbing FlightAware ADS-B
Mon 05:50:57 PM 51.5330 -0.6617 North 250 288 5,000 2,571 Climbing FlightAware ADS-B
Mon 05:51:01 PM 51.5374 -0.6606 North 252 290 5,200 2,571 Climbing FlightAware ADS-B
Mon 05:51:04 PM 51.5408 -0.6591 16° North 253 291 5,300 1,714 Climbing FlightAware ADS-B
Mon 05:51:08 PM 51.5447 -0.6567 21° North 255 293 5,400 1,500 Climbing FlightAware ADS-B
Mon 05:51:12 PM 51.5490 -0.6527 30° Northeast 257 296 5,500 1,500 Climbing FlightAware ADS-B
Mon 05:51:16 PM 51.5523 -0.6489 36° Northeast 261 300 5,600 1,500 Climbing FlightAware ADS-B
Mon 05:51:20 PM 51.5565 -0.6427 42° Northeast 267 307 5,700 1,714 Climbing FlightAware ADS-B
Mon 05:51:23 PM 51.5589 -0.6382 50° Northeast 270 311 5,800 1,714 Climbing FlightAware ADS-B
Mon 05:51:27 PM 51.5616 -0.6319 55° Northeast 275 316 5,900 1,500 Climbing FlightAware ADS-B
Mon 05:51:31 PM 51.5640 -0.6246 62° Northeast 279 321 6,000 1,333 Climbing FlightAware ADS-B
Mon 05:51:36 PM 51.5665 -0.6150 67° East 280 322 6,100 2,182 Climbing FlightAware ADS-B
Mon 05:51:42 PM 51.5693 -0.6020 71° East 284 327 6,400 1,364 Climbing FlightAware ADS-B
Mon 05:51:58 PM 51.5755 -0.5689 73° East 302 348 6,600 968 Climbing FlightAware ADS-B
Mon 05:52:13 PM 51.5817 -0.5355 73° East 319 367 6,900 1,161 Climbing FlightAware ADS-B
Mon 05:52:29 PM 51.5887 -0.4989 73° East 337 388 7,200 1,161 Climbing FlightAware ADS-B
Mon 05:52:44 PM 51.5958 -0.4613 73° East 354 407 7,500 1,400 Climbing FlightAware ADS-B
Mon 05:52:59 PM 51.6033 -0.4217 73° East 368 423 7,900 1,935 Climbing FlightAware ADS-B
Mon 05:53:15 PM 51.6109 -0.3812 73° East 371 427 8,500 2,438 Climbing FlightAware ADS-B
Mon 05:53:31 PM 51.6186 -0.3386 74° East 373 429 9,200 2,625 Climbing FlightAware ADS-B
Mon 05:53:47 PM 51.6262 -0.2958 74° East 375 432 9,900 2,553 Climbing FlightAware ADS-B
Mon 05:54:18 PM 51.6409 -0.2118 74° East 382 440 11,200 2,459 Climbing FlightAware ADS-B
Mon 05:54:48 PM 51.6557 -0.1278 74° East 389 448 12,400 2,262 Climbing FlightAware ADS-B
Mon 05:55:19 PM 51.6716 -0.0427 73° East 396 456 13,500 2,066 Climbing FlightAware ADS-B
Mon 05:55:49 PM 51.6882 0.0442 73° East 408 470 14,500 2,032 Climbing FlightAware ADS-B
Mon 05:56:21 PM 51.7054 0.1370 73° East 414 476 15,600 1,935 Climbing FlightAware ADS-B
Mon 05:56:51 PM 51.7225 0.2293 73° East 424 488 16,500 1,967 Climbing FlightAware ADS-B
Mon 05:57:22 PM 51.7398 0.3231 73° East 428 493 17,600 2,032 Climbing FlightAware ADS-B
Mon 05:57:53 PM 51.7570 0.4167 73° East 434 499 18,600 2,032 Climbing FlightAware ADS-B
Mon 05:58:24 PM 51.7748 0.5148 74° East 440 506 19,700 2,032 Climbing FlightAware ADS-B
Mon 05:58:55 PM 51.7924 0.6122 74° East 445 512 20,700 1,770 Climbing FlightAware ADS-B
Mon 05:59:25 PM 51.8100 0.7092 74° East 453 521 21,500 1,672 Climbing FlightAware ADS-B
Mon 05:59:56 PM 51.8282 0.8107 74° East 461 531 22,400 1,645 Climbing FlightAware ADS-B
Mon 06:00:27 PM 51.8468 0.9142 74° East 468 539 23,200 1,672 Climbing FlightAware ADS-B
Mon 06:00:57 PM 51.8649 1.0164 74° East 474 545 24,100 1,548 Climbing FlightAware ADS-B
Mon 06:01:29 PM 51.8840 1.1250 74° East 482 555 24,800 1,452 Climbing FlightAware ADS-B
Mon 06:01:59 PM 51.9023 1.2297 74° East 488 562 25,600 1,548 Climbing FlightAware ADS-B
Mon 06:02:31 PM 51.9219 1.3428 74° East 495 570 26,400 1,452 Climbing FlightAware ADS-B
Mon 06:03:01 PM 51.9408 1.4513 74° East 502 578 27,100 1,355 Climbing FlightAware ADS-B
Mon 06:03:33 PM 51.9610 1.5680 74° East 508 585 27,800 1,301 Climbing FlightAware ADS-B
Mon 06:04:24 PM 51.9949 1.7551 74° East 517 595 28,900 1,244 Climbing FlightAware ADS-B
Mon 06:04:55 PM 52.0313 1.8623 74° East 500 575 29,500 1,161 Climbing FlightAware UK
Mon 06:04:55 PM 52.0300 1.8580 74° East 527 606 29,500 1,286 Level FlightAware ADS-B (CYTZ)
Mon 06:05:09 PM 52.0490 1.9091 59° Northeast 530 610 29,800 1,964 Climbing FlightAware ADS-B
Mon 06:05:50 PM 52.0979 2.0497 60° Northeast 521 600 31,300 1,902 Climbing FlightAware ADS-B
Mon 06:06:31 PM 52.1449 2.1927 60° Northeast 490 564 32,400 1,569 Climbing FlightAware UK
Mon 06:06:55 PM 52.1690 2.2690 62° Northeast 516 594 33,000 1,200 Climbing FlightAware ADS-B (CYTZ)
Mon 06:07:01 PM 52.1779 2.2958 62° Northeast 490 564 33,000  Level FlightAware UK
Mon 06:07:31 PM 52.2104 2.3988 62° Northeast 486 559 33,000  Level FlightAware UK
Mon 06:07:41 PM 52.2200 2.4290 62° Northeast 513 590 33,000  Level FlightAware ADS-B
Mon 06:08:17 PM 52.2610 2.5520 61° Northeast 514 592 33,000  Level FlightAware ADS-B
Mon 06:09:01 PM 52.3130 2.7020 61° Northeast 514 592 33,000  Level FlightAware ADS-B
Mon 06:09:07 PM 52.3206 2.7245 61° Northeast 488 562 33,000  Level FlightAware UK
Mon 06:09:37 PM 52.3550 2.8263 61° Northeast 488 562 33,000  Level FlightAware UK
Mon 06:09:45 PM 52.3630 2.8500 61° Northeast 514 592 33,000  Level FlightAware ADS-B
Mon 06:10:29 PM 52.4130 2.9990 61° Northeast 515 593 33,000  Level FlightAware ADS-B
Mon 06:11:07 PM 52.4572 3.1334 61° Northeast 488 562 33,000  Level FlightAware UK
Mon 06:11:36 PM 52.4760 3.1910 61° Northeast 514 592 33,000  Level FlightAware ADS-B
Mon 06:11:37 PM 52.4916 3.2358 61° Northeast 488 562 33,000  Level FlightAware UK
Mon 06:12:07 PM 52.5254 3.3386 61° Northeast 488 562 33,000  Level FlightAware UK
Mon 06:12:17 PM 52.5330 3.3610 61° Northeast 515 593 33,000  Level FlightAware ADS-B
Mon 06:13:01 PM 52.5840 3.5170 62° Northeast 514 592 33,000  Level FlightAware ADS-B
Mon 06:13:37 PM 52.6268 3.6482 62° Northeast 488 562 33,000  Level FlightAware UK
Mon 06:13:39 PM 52.6270 3.6490 62° Northeast 514 592 33,000  Level FlightAware ADS-B
Mon 06:14:27 PM 52.6810 3.8140 62° Northeast 514 592 33,000  Level FlightAware ADS-B
Mon 06:15:07 PM 52.7272 3.9585 62° Northeast 488 562 33,000  Level FlightAware UK
Mon 06:15:32 PM 52.7350 3.9820 62° Northeast 513 590 33,000  Level FlightAware ADS-B
Mon 06:15:37 PM 52.7606 4.0621 62° Northeast 488 562 33,000  Level FlightAware UK
Mon 06:16:07 PM 52.7940 4.1656 62° Northeast 488 562 33,000  Level FlightAware UK
Mon 06:16:18 PM 52.7870 4.1440 62° Northeast 513 590 33,000  Level FlightAware ADS-B
Mon 06:16:59 PM 52.8470 4.3330 62° Northeast 508 585 33,000  Level FlightAware ADS-B
Mon 06:17:07 PM 52.8602 4.3733 62° Northeast 488 562 33,000  Level FlightAware UK
Mon 06:17:37 PM 52.8928 4.4775 62° Northeast 488 562 33,000  Level FlightAware UK
Mon 06:17:44 PM 52.8980 4.4950 62° Northeast 513 590 33,000  Level FlightAware ADS-B
Mon 06:18:24 PM 52.9410 4.6330 63° Northeast 512 589 33,000  Level FlightAware ADS-B
Mon 06:19:08 PM 52.9903 4.7914 63° Northeast 488 562 33,000  Level FlightAware UK
Mon 06:19:09 PM 52.9900 4.7880 63° Northeast 512 589 33,000  Level FlightAware ADS-B
Mon 06:19:41 PM 53.0230 4.8970 63° Northeast 512 589 33,000  Level FlightAware ADS-B
Mon 06:20:27 PM 53.0730 5.0570 62° Northeast 512 589 33,000  Level FlightAware ADS-B
Mon 06:21:07 PM 53.1160 5.1980 62° Northeast 511 588 33,000  Level FlightAware ADS-B
Mon 06:21:08 PM 53.1199 5.2107 62° Northeast 488 562 33,000  Level FlightAware UK
Mon 06:21:38 PM 53.1525 5.3156 62° Northeast 1 1 33,000  Level FlightAware UK
Mon 06:21:47 PM 53.1580 5.3360 62° Northeast 510 587 33,000  Level FlightAware ADS-B
Mon 06:22:31 PM 53.2070 5.4960 63° Northeast 510 587 33,000  Level FlightAware ADS-B
Mon 06:23:08 PM 53.2473 5.6313 63° Northeast 486 559 33,000  Level FlightAware UK
Mon 06:23:15 PM 53.2540 5.6530 63° Northeast 511 588 33,000  Level FlightAware ADS-B
Mon 06:23:55 PM 53.2960 5.7930 63° Northeast 510 587 33,000  Level FlightAware ADS-B
Mon 06:24:35 PM 53.3370 5.9320 63° Northeast 511 588 33,000  Level FlightAware ADS-B
Mon 06:24:38 PM 53.3416 5.9482 63° Northeast 488 562 33,000  Level FlightAware UK
Mon 06:25:08 PM 53.3732 6.0550 63° Northeast 488 562 33,000  Level FlightAware UK
Mon 06:25:15 PM 53.3790 6.0760 63° Northeast 510 587 33,000  Level FlightAware ADS-B
Mon 06:25:59 PM 53.4240 6.2270 63° Northeast 509 586 33,000  Level FlightAware ADS-B
Mon 06:26:08 PM 53.4361 6.2669 63° Northeast 488 562 33,000  Level FlightAware UK
Mon 06:26:38 PM 53.4665 6.3732 63° Northeast 488 562 33,000  Level FlightAware UK
Mon 06:26:43 PM 53.4700 6.3870 63° Northeast 509 586 33,000  Level FlightAware ADS-B
Mon 06:27:24 PM 53.5110 6.5260 64° Northeast 508 585 33,000  Level FlightAware ADS-B
Mon 06:28:08 PM 53.5597 6.6918 64° Northeast 1 1 33,000  Level FlightAware UK
Mon 06:28:08 PM 53.5570 6.6860 64° Northeast 509 586 33,000  Level FlightAware ADS-B
Mon 06:28:38 PM 53.5898 6.7987 64° Northeast 1 1 33,000  Level FlightAware UK
Mon 06:28:49 PM 53.6000 6.8360 64° Northeast 509 586 33,000  Level FlightAware ADS-B
Mon 06:29:33 PM 53.6450 6.9930 64° Northeast 508 585 33,000  Level FlightAware ADS-B
Mon 06:30:13 PM 53.6850 7.1370 65° Northeast 509 586 33,000  Level FlightAware ADS-B
Mon 06:30:57 PM 53.7290 7.2930 64° Northeast 508 585 33,000  Level FlightAware ADS-B
Mon 06:31:27 PM 53.7580 7.3960 65° Northeast 509 586 33,000  Level FlightAware ADS-B
Mon 06:32:13 PM 53.8030 7.5600 65° Northeast 508 585 33,000  Level FlightAware ADS-B
Mon 06:32:47 PM 53.8360 7.6810 65° Northeast 509 586 33,000  Level FlightAware ADS-B
Mon 06:33:30 PM 53.8810 7.8420 65° Northeast 509 586 33,000  Level FlightAware ADS-B (KAPA)
Mon 06:34:10 PM 53.9200 7.9870 65° Northeast 508 585 33,000  Level FlightAware ADS-B (KAPA)
Mon 06:34:51 PM 53.9600 8.1370 66° East 507 583 33,000  Level FlightAware ADS-B (KAPA)
Mon 06:35:33 PM 54.0020 8.2890 65° Northeast 507 583 33,000  Level FlightAware ADS-B (KAPA)
Mon 06:36:18 PM 54.0440 8.4500 66° East 507 583 33,000  Level FlightAware ADS-B (KAPA)
Mon 06:36:59 PM 54.0840 8.5990 65° Northeast 508 585 33,000  Level FlightAware ADS-B (KAPA)
Mon 06:37:42 PM 54.1250 8.7540 66° East 508 585 33,000  Level FlightAware ADS-B (KAPA)
Mon 06:38:19 PM 54.1600 8.8910 66° East 507 583 33,000  Level FlightAware ADS-B
Mon 06:38:53 PM 54.1930 9.0150 65° Northeast 507 583 33,000  Level FlightAware ADS-B
Mon 06:39:41 PM 54.2380 9.1910 66° East 507 583 33,000  Level FlightAware ADS-B
Mon 06:40:17 PM 54.2720 9.3240 66° East 506 582 33,000  Level FlightAware ADS-B
Mon 06:40:58 PM 54.3110 9.4740 66° East 506 582 33,000  Level FlightAware ADS-B
Mon 06:41:37 PM 54.3460 9.6140 67° East 505 581 33,000  Level FlightAware ADS-B
Mon 06:42:17 PM 54.3830 9.7600 66° East 503 579 33,000  Level FlightAware ADS-B
Mon 06:43:01 PM 54.4230 9.9210 67° East 502 578 33,000  Level FlightAware ADS-B
Mon 06:43:45 PM 54.4640 10.0820 66° East 502 578 33,000  Level FlightAware ADS-B
Mon 06:44:25 PM 54.5020 10.2280 66° East 502 578 33,000  Level FlightAware ADS-B
Mon 06:45:25 PM 54.5460 10.3960 66° East 502 578 33,000  Level FlightAware ADS-B
Mon 06:46:16 PM 54.5900 10.5700 66° East 498 573 33,000  Level FlightAware ADS-B
Mon 06:47:11 PM 54.6540 10.8260 67° East 503 579 33,000  Level FlightAware ADS-B
Mon 06:47:58 PM 54.6980 11.0010 66° East 502 578 33,000  Level FlightAware ADS-B
Mon 06:48:38 PM 54.7350 11.1500 67° East 502 578 33,000  Level FlightAware ADS-B
Mon 06:49:18 PM 54.7720 11.3000 67° East 503 579 33,000  Level FlightAware ADS-B
Mon 06:50:04 PM 54.8140 11.4710 67° East 501 577 33,000  Level FlightAware ADS-B
Mon 06:50:44 PM 54.8500 11.6190 67° East 500 575 33,000  Level FlightAware ADS-B
Mon 06:51:24 PM 54.8860 11.7700 67° East 499 574 33,000  Level FlightAware ADS-B
Mon 06:52:10 PM 54.9250 11.9310 67° East 499 574 33,000  Level FlightAware ADS-B
Mon 06:52:42 PM 54.9530 12.0500 68° East 499 574 33,000  Level FlightAware ADS-B
Mon 06:53:24 PM 54.9910 12.2070 67° East 499 574 33,000  Level FlightAware ADS-B
Mon 06:54:08 PM 55.0290 12.3710 68° East 498 573 33,000  Level FlightAware ADS-B
Mon 06:54:40 PM 55.0570 12.4900 68° East 499 574 33,000  Level FlightAware ADS-B
Mon 06:55:24 PM 55.0950 12.6540 68° East 501 577 33,000  Level FlightAware ADS-B
Mon 06:56:08 PM 55.1340 12.8230 68° East 501 577 33,000  Level FlightAware ADS-B
Mon 06:56:48 PM 55.1670 12.9680 68° East 503 579 33,000  Level FlightAware ADS-B
Mon 06:57:32 PM 55.2040 13.1330 68° East 501 577 33,000  Level FlightAware ADS-B
Mon 06:58:12 PM 55.2380 13.2840 68° East 501 577 33,000  Level FlightAware ADS-B
Mon 06:58:56 PM 55.2750 13.4510 69° East 499 574 33,000  Level FlightAware ADS-B
Mon 06:59:36 PM 55.3080 13.6010 69° East 499 574 33,000  Level FlightAware ADS-B
Mon 07:00:23 PM 55.3350 13.7230 69° East 499 574 33,000  Level FlightAware ADS-B
Mon 07:01:40 PM 55.4110 14.0700 69° East 499 574 33,000  Level FlightAware ADS-B
Mon 07:02:24 PM 55.4470 14.2390 69° East 500 575 33,000  Level FlightAware ADS-B
Mon 07:03:05 PM 55.4800 14.3920 69° East 495 570 33,000  Level FlightAware ADS-B
Mon 07:03:39 PM 55.5070 14.5240 70° East 493 567 33,000  Level FlightAware ADS-B
Mon 07:04:25 PM 55.5440 14.6960 69° East 494 568 33,000  Level FlightAware ADS-B
Mon 07:05:04 PM 55.5750 14.8460 70° East 493 567 33,000  Level FlightAware ADS-B
Mon 07:05:50 PM 55.6100 15.0190 70° East 492 566 33,000  Level FlightAware ADS-B
Mon 07:06:30 PM 55.6410 15.1680 70° East 492 566 33,000  Level FlightAware ADS-B
Mon 07:07:14 PM 55.6760 15.3390 70° East 491 565 33,000  Level FlightAware ADS-B
Mon 07:07:55 PM 55.7070 15.4920 70° East 494 568 33,000  Level FlightAware ADS-B
Mon 07:08:29 PM 55.7330 15.6240 71° East 494 568 33,000  Level FlightAware ADS-B
Mon 07:09:10 PM 55.7640 15.7780 70° East 495 570 33,000  Level FlightAware ADS-B
Mon 07:09:54 PM 55.7970 15.9480 71° East 495 570 33,000  Level FlightAware ADS-B
Mon 07:10:25 PM 55.8200 16.0660 71° East 495 570 33,000  Level FlightAware ADS-B
Mon 07:11:27 PM 55.8630 16.2870 71° East 494 568 33,000  Level FlightAware ADS-B
Mon 07:12:05 PM 55.8940 16.4480 71° East 495 570 33,000  Level FlightAware ADS-B
Mon 07:12:51 PM 55.9280 16.6260 71° East 496 571 33,000  Level FlightAware ADS-B
Mon 07:13:31 PM 55.9570 16.7800 71° East 496 571 33,000  Level FlightAware ADS-B
Mon 07:14:15 PM 55.9900 16.9550 71° East 497 572 33,000  Level FlightAware ADS-B
Mon 07:14:55 PM 56.0190 17.1110 72° East 496 571 33,000  Level FlightAware ADS-B
Mon 07:16:12 PM 56.0710 17.3970 72° East 494 568 33,000  Level FlightAware ADS-B
Mon 07:16:54 PM 56.1030 17.5710 72° East 492 566 33,000  Level FlightAware ADS-B
Mon 07:17:39 PM 56.1340 17.7470 72° East 494 568 33,000  Level FlightAware ADS-B
Mon 07:18:19 PM 56.1620 17.9020 72° East 495 570 33,000  Level FlightAware ADS-B
Mon 07:19:03 PM 56.1920 18.0770 73° East 496 571 33,000  Level FlightAware ADS-B
Mon 07:19:44 PM 56.2130 18.2420 77° East 501 577 33,000  Level FlightAware ADS-B
Mon 07:20:28 PM 56.2320 18.4250 79° East 503 579 33,000  Level FlightAware ADS-B
Mon 07:21:04 PM 56.2460 18.5690 80° East 503 579 33,000  Level FlightAware ADS-B
Mon 07:21:42 PM 56.2610 18.7280 80° East 502 578 33,000  Level FlightAware ADS-B
Mon 07:22:26 PM 56.2780 18.9090 80° East 502 578 33,000  Level FlightAware ADS-B
Mon 07:23:06 PM 56.2930 19.0690 80° East 502 578 33,000  Level FlightAware ADS-B
Mon 07:23:42 PM 56.3070 19.2180 80° East 503 579 33,000  Level FlightAware ADS-B
Mon 07:24:26 PM 56.3240 19.3990 80° East 503 579 33,000  Level FlightAware ADS-B
Mon 07:25:06 PM 56.3380 19.5610 81° East 502 578 33,000  Level FlightAware ADS-B
Mon 07:25:42 PM 56.3510 19.7090 81° East 504 580 33,000  Level FlightAware ADS-B
Mon 07:26:22 PM 56.3660 19.8810 81° East 504 580 33,000  Level FlightAware ADS-B
Mon 07:27:05 PM 56.3810 20.0560 81° East 504 580 33,000  Level FlightAware ADS-B
Mon 07:27:47 PM 56.3950 20.2280 82° East 505 581 33,000  Level FlightAware ADS-B
Mon 07:28:31 PM 56.4110 20.4150 81° East 505 581 33,000  Level FlightAware ADS-B
Mon 07:29:10 PM 56.4240 20.5810 82° East 505 581 33,000  Level FlightAware ADS-B
Mon 07:29:52 PM 56.4380 20.7540 82° East 502 578 33,000  Level FlightAware ADS-B
Mon 07:30:59 PM 56.4560 20.9870 82° East 502 578 33,000  Level FlightAware ADS-B
Mon 07:31:42 PM 56.4730 21.2080 82° East 500 575 33,000  Level FlightAware ADS-B
Mon 07:32:22 PM 56.4850 21.3750 83° East 500 575 33,000  Level FlightAware ADS-B
Mon 07:33:06 PM 56.4980 21.5560 83° East 500 575 33,000  Level FlightAware ADS-B
Mon 07:33:48 PM 56.5110 21.7320 82° East 500 575 33,000  Level FlightAware ADS-B
Mon 07:34:28 PM 56.5220 21.8960 83° East 500 575 33,000  Level FlightAware ADS-B
Mon 07:35:12 PM 56.5340 22.0720 83° East 500 575 33,000  Level FlightAware ADS-B
Mon 07:35:48 PM 56.5450 22.2300 83° East 500 575 33,000  Level FlightAware ADS-B
Mon 07:36:34 PM 56.5570 22.4160 83° East 501 577 33,000  Level FlightAware ADS-B
Mon 07:37:16 PM 56.5650 22.5950 85° East 504 580 33,000  Level FlightAware ADS-B
Mon 07:37:58 PM 56.5700 22.7730 87° East 504 580 33,000  Level FlightAware ADS-B
Mon 07:38:40 PM 56.5740 22.9490 88° East 503 579 33,000  Level FlightAware ADS-B
Mon 07:39:20 PM 56.5780 23.1140 87° East 502 578 33,000  Level FlightAware ADS-B
Mon 07:40:00 PM 56.5810 23.2860 88° East 504 580 33,000  Level FlightAware ADS-B
Mon 07:40:40 PM 56.5850 23.4520 87° East 505 581 33,000  Level FlightAware ADS-B
Mon 07:41:19 PM 56.5870 23.6170 89° East 507 583 33,000  Level FlightAware ADS-B
Mon 07:41:55 PM 56.5900 23.7710 88° East 508 585 33,000  Level FlightAware ADS-B
Mon 07:42:39 PM 56.5930 23.9580 88° East 508 585 33,000  Level FlightAware ADS-B
Mon 07:43:19 PM 56.5950 24.1290 89° East 507 583 33,000  Level FlightAware ADS-B
Mon 07:43:59 PM 56.5970 24.2980 89° East 507 583 33,000  Level FlightAware ADS-B
Mon 07:44:43 PM 56.5990 24.4860 89° East 507 583 33,000  Level FlightAware ADS-B
Mon 07:45:52 PM 56.6010 24.7280 89° East 505 581 33,000  Level FlightAware ADS-B
Mon 07:46:33 PM 56.5950 24.9500 93° East 508 585 33,000  Level FlightAware ADS-B
Mon 07:47:18 PM 56.5840 25.1380 96° East 508 585 33,000  Level FlightAware ADS-B
Mon 07:47:57 PM 56.5730 25.3030 97° East 508 585 33,000  Level FlightAware ADS-B
Mon 07:48:39 PM 56.5620 25.4780 96° East 508 585 33,000  Level FlightAware ADS-B
Mon 07:49:16 PM 56.5530 25.6290 96° East 507 583 33,000  Level FlightAware ADS-B
Mon 07:49:56 PM 56.5410 25.8030 97° East 508 585 33,000  Level FlightAware ADS-B
Mon 07:50:36 PM 56.5300 25.9680 97° East 508 585 33,000  Level FlightAware ADS-B
Mon 07:51:26 PM 56.5170 26.1700 97° East 505 581 33,000  Level FlightAware ADS-B
Mon 07:52:23 PM 56.5010 26.4000 97° East 505 581 33,000  Level FlightAware ADS-B
Mon 07:53:03 PM 56.4870 26.5860 98° East 504 580 33,000  Level FlightAware ADS-B
Mon 07:53:48 PM 56.4740 26.7670 97° East 503 579 33,000  Level FlightAware ADS-B
Mon 07:54:43 PM 56.4570 26.9970 98° East 502 578 33,000  Level FlightAware ADS-B
Mon 07:55:41 PM 56.4380 27.2410 98° East 502 578 33,000  Level FlightAware ADS-B
Mon 07:56:38 PM 56.4290 27.3670 97° East 502 578 33,000  Level FlightAware ADS-B
Mon 07:57:18 PM 56.4070 27.6420 98° East 500 575 33,000  Level FlightAware ADS-B
Mon 07:57:53 PM 56.3950 27.7850 99° East 499 574 33,000  Level FlightAware ADS-B
Mon 07:58:53 PM 56.3750 28.0280 98° East 499 574 33,000  Level FlightAware ADS-B
Mon 07:59:39 PM 56.3580 28.2220 99° East 499 574 33,000  Level FlightAware ADS-B
Mon 08:00:15 PM 56.3450 28.3720 99° East 499 574 33,000  Level FlightAware ADS-B
Mon 08:01:14 PM 56.3240 28.6020 99° East 498 573 33,000  Level FlightAware ADS-B
Mon 08:01:57 PM 56.3070 28.7890 99° East 498 573 33,000  Level FlightAware ADS-B
Mon 08:02:32 PM 56.2940 28.9290 99° East 496 571 33,000  Level FlightAware ADS-B
Mon 08:03:12 PM 56.2780 29.0920 100° East 496 571 33,000  Level FlightAware ADS-B
Mon 08:03:47 PM 56.2650 29.2350 99° East 497 572 33,000  Level FlightAware ADS-B
Mon 08:04:27 PM 56.2520 29.3740 99° East 497 572 33,000  Level FlightAware ADS-B
Mon 08:05:15 PM 56.2380 29.5410 99° East 497 572 33,000  Level FlightAware ADS-B
Mon 08:05:53 PM 56.2260 29.6730 99° East 497 572 33,000  Level FlightAware ADS-B
Mon 08:06:29 PM 56.2150 29.7980 99° East 497 572 33,000  Level FlightAware ADS-B
Mon 08:07:17 PM 56.2000 29.9650 99° East 497 572 33,000  Level FlightAware ADS-B
Mon 08:07:53 PM 56.1890 30.0890 99° East 497 572 33,000  Level FlightAware ADS-B
Mon 08:08:41 PM 56.1750 30.2560 98° East 497 572 33,000  Level FlightAware ADS-B
Mon 08:09:17 PM 56.1630 30.3810 100° East 497 572 33,000  Level FlightAware ADS-B
Mon 08:09:54 PM 56.1520 30.5090 99° East 497 572 33,000  Level FlightAware ADS-B
Mon 08:10:42 PM 56.1370 30.6750 99° East 497 572 33,000  Level FlightAware ADS-B
Mon 08:11:36 PM 56.1210 30.8620 99° East 497 572 33,000  Level FlightAware ADS-B
Mon 08:12:12 PM 56.1100 30.9870 99° East 497 572 33,000  Level FlightAware ADS-B
Mon 08:12:50 PM 56.0380 31.3920 108° East 487 560 33,000  Level FlightAware ADS-B
Mon 08:13:40 PM 56.0200 31.5610 101° East 487 560 33,000  Level FlightAware ADS-B
Mon 08:14:28 PM 55.9950 31.7680 102° East 489 563 33,000  Level FlightAware ADS-B
Mon 08:15:08 PM 55.9750 31.9420 102° East 485 558 33,000  Level FlightAware ADS-B
Mon 08:15:52 PM 55.9550 32.1140 102° East 485 558 33,000  Level FlightAware ADS-B
Mon 08:16:32 PM 55.9360 32.2730 102° East 482 555 33,000  Level FlightAware ADS-B
Mon 08:17:12 PM 55.9180 32.4270 102° East 480 552 33,000  Level FlightAware ADS-B
Mon 08:17:57 PM 55.8970 32.5970 102° East 478 550 33,000  Level FlightAware ADS-B
Mon 08:18:37 PM 55.8770 32.7520 103° East 472 543 33,000  Level FlightAware ADS-B
Mon 08:19:17 PM 55.8560 32.9020 104° East 467 537 33,000  Level FlightAware ADS-B
Mon 08:20:02 PM 55.8030 33.0460 123° Southeast 468 539 33,000  Level FlightAware ADS-B
Mon 08:20:47 PM 55.7410 33.1760 130° Southeast 468 539 33,000  Level FlightAware ADS-B
Mon 08:21:28 PM 55.6840 33.2930 131° Southeast 468 539 33,000  Level FlightAware ADS-B
Mon 08:22:12 PM 55.6210 33.4230 131° Southeast 466 536 33,000  Level FlightAware ADS-B
Mon 08:22:47 PM 55.5720 33.5240 131° Southeast 467 537 33,000  Level FlightAware ADS-B
Mon 08:23:27 PM 55.5150 33.6390 131° Southeast 466 536 33,000  Level FlightAware ADS-B
Mon 08:24:12 PM 55.4520 33.7680 131° Southeast 467 537 33,000  Level FlightAware ADS-B
Mon 08:24:43 PM 55.4110 33.8540 130° Southeast 468 539 33,000  Level FlightAware ADS-B
Mon 08:25:27 PM 55.3480 33.9860 130° Southeast 468 539 33,000  Level FlightAware ADS-B
Mon 08:26:12 PM 55.2860 34.1150 130° Southeast 464 534 33,000  Level FlightAware ADS-B
Mon 08:26:52 PM 55.2300 34.2310 130° Southeast 465 535 33,000  Level FlightAware ADS-B
Mon 08:27:37 PM 55.1680 34.3590 130° Southeast 467 537 33,000  Level FlightAware ADS-B
Mon 08:28:17 PM 55.1120 34.4740 130° Southeast 469 540 33,000  Level FlightAware ADS-B
Mon 08:29:02 PM 55.0460 34.6020 132° Southeast 471 542 33,000  Level FlightAware ADS-B
Mon 08:29:42 PM 54.9890 34.7160 131° Southeast 470 541 33,000  Level FlightAware ADS-B
Mon 08:30:27 PM 54.9260 34.8440 131° Southeast 471 542 33,000  Level FlightAware ADS-B
Mon 08:31:08 PM 54.8690 34.9590 131° Southeast 472 543 33,000  Level FlightAware ADS-B
Mon 08:31:42 PM 54.8190 35.0590 131° Southeast 475 547 33,000  Level FlightAware ADS-B
Mon 08:32:22 PM 54.7630 35.1770 129° Southeast 479 551 33,000  Level FlightAware ADS-B
Mon 08:33:07 PM 54.7380 35.3400 105° East 477 549 33,000  Level FlightAware ADS-B
Mon 08:33:52 PM 54.7380 35.5110 90° East 473 544 33,000  Level FlightAware ADS-B
Mon 08:34:32 PM 54.7380 35.6610 90° East 472 543 33,000  Level FlightAware ADS-B
Mon 08:35:12 PM 54.7380 35.8120 90° East 472 543 33,000  Level FlightAware ADS-B
Mon 08:35:52 PM 54.7380 35.9630 90° East 474 545 33,000  Level FlightAware ADS-B
Mon 08:36:32 PM 54.7370 36.1130 91° East 474 545 33,000  Level FlightAware ADS-B
Mon 08:37:07 PM 54.7360 36.2450 91° East 473 544 33,000  Level FlightAware ADS-B
Mon 08:37:57 PM 54.7350 36.4330 90° East 473 544 33,000  Level FlightAware ADS-B
Mon 08:38:30 PM 54.7340 36.5560 91° East 473 544 33,000  Level FlightAware ADS-B
Mon 08:39:12 PM 54.7200 36.7150 99° East 468 539 33,000 293 Level FlightAware ADS-B
Mon 08:39:52 PM 54.6950 36.8580 107° East 473 544 33,400 1,059 Climbing FlightAware ADS-B
Mon 08:40:37 PM 54.6650 37.0200 108° East 472 543 34,500 1,129 Climbing FlightAware ADS-B
Mon 08:41:17 PM 54.6380 37.1640 108° East 479 551 35,000 366 Climbing FlightAware ADS-B
Mon 08:41:59 PM 54.6100 37.3070 109° East 477 549 35,000  Level FlightAware ADS-B
Mon 08:42:44 PM 54.5660 37.4700 115° Southeast 479 551 35,000  Level FlightAware ADS-B
Mon 08:43:22 PM 54.5290 37.5980 116° Southeast 479 551 35,000  Level FlightAware ADS-B
Mon 08:44:02 PM 54.4890 37.7350 117° Southeast 480 552 35,000  Level FlightAware ADS-B
Mon 08:44:42 PM 54.4500 37.8720 116° Southeast 477 549 35,000  Level FlightAware ADS-B
Mon 08:45:22 PM 54.4120 38.0070 116° Southeast 475 547 35,000  Level FlightAware ADS-B
Mon 08:46:03 PM 54.3740 38.1410 116° Southeast 472 543 35,000  Level FlightAware ADS-B
Mon 08:46:47 PM 54.3370 38.2970 112° Southeast 476 548 35,000  Level FlightAware ADS-B
Mon 08:47:23 PM 54.3160 38.4260 106° East 476 548 35,000  Level FlightAware ADS-B
Mon 08:48:07 PM 54.2910 38.5880 105° East 476 548 35,000  Level FlightAware ADS-B
Mon 08:48:52 PM 54.2650 38.7490 105° East 475 547 35,000  Level FlightAware ADS-B
Mon 08:49:32 PM 54.2410 38.8960 106° East 473 544 35,000  Level FlightAware ADS-B
Mon 08:50:17 PM 54.2180 39.0580 104° East 473 544 35,000  Level FlightAware ADS-B
Mon 08:50:57 PM 54.1970 39.2030 104° East 471 542 35,000  Level FlightAware ADS-B
Mon 08:51:37 PM 54.1770 39.3460 103° East 470 541 35,000  Level FlightAware ADS-B
Mon 08:52:17 PM 54.1560 39.4890 104° East 471 542 35,000  Level FlightAware ADS-B
Mon 08:52:57 PM 54.1350 39.6310 104° East 470 541 35,000  Level FlightAware ADS-B
Mon 08:53:37 PM 54.1130 39.7760 104° East 470 541 35,000  Level FlightAware ADS-B
Mon 08:54:17 PM 54.0920 39.9210 104° East 472 543 35,000  Level FlightAware ADS-B
Mon 08:55:02 PM 54.0670 40.0820 105° East 475 547 35,000  Level FlightAware ADS-B
Mon 08:55:47 PM 54.0420 40.2450 105° East 477 549 35,000  Level FlightAware ADS-B
Mon 08:56:27 PM 54.0200 40.3890 105° East 478 550 35,000  Level FlightAware ADS-B
Mon 08:57:12 PM 53.9940 40.5540 105° East 481 554 35,000  Level FlightAware ADS-B
Mon 08:57:42 PM 53.9770 40.6630 105° East 481 554 35,000  Level FlightAware ADS-B
Mon 08:58:27 PM 53.9510 40.8270 105° East 483 556 35,000  Level FlightAware ADS-B
Mon 08:59:07 PM 53.9280 40.9740 105° East 484 557 35,000  Level FlightAware ADS-B
Mon 08:59:42 PM 53.9080 41.1010 105° East 484 557 35,000  Level FlightAware ADS-B
Mon 09:00:27 PM 53.8820 41.2660 105° East 481 554 35,000  Level FlightAware ADS-B
Mon 09:01:07 PM 53.8590 41.4100 105° East 472 543 35,000  Level FlightAware ADS-B
Mon 09:01:52 PM 53.8340 41.5690 105° East 471 542 35,000  Level FlightAware ADS-B
Mon 09:02:32 PM 53.8110 41.7100 105° East 469 540 35,000  Level FlightAware ADS-B
Mon 09:03:12 PM 53.7870 41.8510 106° East 468 539 35,000  Level FlightAware ADS-B
Mon 09:03:52 PM 53.7640 41.9890 106° East 466 536 35,000  Level FlightAware ADS-B
Mon 09:04:32 PM 53.7410 42.1310 105° East 466 536 35,000  Level FlightAware ADS-B
Mon 09:05:12 PM 53.7170 42.2710 106° East 465 535 35,000  Level FlightAware ADS-B
Mon 09:05:52 PM 53.6950 42.4050 105° East 466 536 35,000  Level FlightAware ADS-B
Mon 09:06:44 PM 53.6630 42.5870 106° East 466 536 35,000  Level FlightAware ADS-B
Mon 09:07:24 PM 53.6480 42.7300 100° East 474 545 35,000  Level FlightAware ADS-B
Mon 09:08:09 PM 53.6430 42.9000 93° East 476 548 35,000  Level FlightAware ADS-B
Mon 09:08:44 PM 53.6390 43.0290 93° East 477 549 35,000  Level FlightAware ADS-B
Mon 09:09:24 PM 53.6350 43.1780 93° East 481 554 35,000  Level FlightAware ADS-B
Mon 09:10:05 PM 53.6290 43.3270 94° East 484 557 35,000  Level FlightAware ADS-B
Mon 09:10:49 PM 53.6240 43.4810 93° East 485 558 35,000  Level FlightAware ADS-B
Mon 09:11:29 PM 53.6180 43.6440 93° East 486 559 35,000  Level FlightAware ADS-B
Mon 09:12:13 PM 53.6120 43.8110 93° East 483 556 35,000  Level FlightAware ADS-B
Mon 09:12:53 PM 53.6060 43.9610 94° East 481 554 35,000  Level FlightAware ADS-B
Mon 09:13:28 PM 53.6010 44.0910 94° East 478 550 35,000  Level FlightAware ADS-B
Mon 09:14:13 PM 53.5960 44.2580 93° East 478 550 35,000  Level FlightAware ADS-B
Mon 09:14:53 PM 53.5920 44.4060 93° East 479 551 35,000  Level FlightAware ADS-B
Mon 09:15:38 PM 53.5870 44.5720 93° East 477 549 35,000  Level FlightAware ADS-B
Mon 09:16:18 PM 53.5830 44.7210 93° East 474 545 35,000  Level FlightAware ADS-B
Mon 09:17:03 PM 53.5770 44.8870 93° East 472 543 35,000  Level FlightAware ADS-B
Mon 09:17:43 PM 53.5730 45.0320 93° East 472 543 35,000  Level FlightAware ADS-B
Mon 09:18:23 PM 53.5650 45.1750 95° East 471 542 35,000  Level FlightAware ADS-B
Mon 09:19:08 PM 53.5340 45.3340 108° East 472 543 35,000  Level FlightAware ADS-B
Mon 09:19:48 PM 53.5000 45.4700 113° Southeast 473 544 35,000  Level FlightAware ADS-B
Mon 09:20:28 PM 53.4660 45.6050 113° Southeast 472 543 35,000  Level FlightAware ADS-B
Mon 09:21:08 PM 53.4330 45.7380 113° Southeast 471 542 35,000  Level FlightAware ADS-B
Mon 09:21:53 PM 53.3950 45.8910 113° Southeast 472 543 35,000  Level FlightAware ADS-B
Mon 09:22:28 PM 53.3650 46.0080 113° Southeast 472 543 35,000  Level FlightAware ADS-B
Mon 09:23:08 PM 53.3310 46.1410 113° Southeast 472 543 35,000  Level FlightAware ADS-B
Mon 09:23:52 PM 53.2940 46.2890 113° Southeast 473 544 35,000  Level FlightAware ADS-B
Mon 09:24:37 PM 53.2550 46.4390 113° Southeast 474 545 35,000  Level FlightAware ADS-B
Mon 09:25:17 PM 53.2200 46.5740 113° Southeast 477 549 35,000  Level FlightAware ADS-B
Mon 09:25:57 PM 53.1840 46.7100 114° Southeast 479 551 35,000  Level FlightAware ADS-B
Mon 09:26:42 PM 53.1440 46.8620 114° Southeast 478 550 35,000  Level FlightAware ADS-B
Mon 09:27:17 PM 53.1130 46.9790 114° Southeast 477 549 35,000  Level FlightAware ADS-B
Mon 09:27:57 PM 53.0780 47.1130 113° Southeast 478 550 35,000  Level FlightAware ADS-B
Mon 09:28:37 PM 53.0420 47.2480 114° Southeast 478 550 35,000  Level FlightAware ADS-B
Mon 09:29:17 PM 53.0060 47.3810 114° Southeast 478 550 35,000  Level FlightAware ADS-B
Mon 09:29:57 PM 52.9700 47.5130 114° Southeast 479 551 35,000  Level FlightAware ADS-B
Mon 09:30:37 PM 52.9340 47.6450 114° Southeast 480 552 35,000  Level FlightAware ADS-B
Mon 09:31:17 PM 52.8970 47.7820 114° Southeast 480 552 35,000  Level FlightAware ADS-B
Mon 09:32:02 PM 52.8560 47.9320 114° Southeast 481 554 35,000  Level FlightAware ADS-B
Mon 09:32:42 PM 52.8190 48.0640 115° Southeast 481 554 35,000  Level FlightAware ADS-B
Mon 09:33:27 PM 52.7770 48.2140 115° Southeast 482 555 35,000  Level FlightAware ADS-B
Mon 09:34:12 PM 52.7350 48.3650 115° Southeast 481 554 35,000  Level FlightAware ADS-B
Mon 09:34:42 PM 52.7070 48.4640 115° Southeast 478 550 35,000  Level FlightAware ADS-B
Mon 09:35:27 PM 52.6650 48.6130 115° Southeast 481 554 35,000  Level FlightAware ADS-B
Mon 09:36:07 PM 52.6280 48.7450 115° Southeast 482 555 35,000  Level FlightAware ADS-B
Mon 09:36:47 PM 52.5900 48.8780 115° Southeast 483 556 35,000  Level FlightAware ADS-B
Mon 09:37:32 PM 52.5480 49.0250 115° Southeast 482 555 35,000  Level FlightAware ADS-B
Mon 09:38:17 PM 52.5050 49.1760 115° Southeast 481 554 35,000  Level FlightAware ADS-B
Mon 09:38:57 PM 52.4680 49.3050 115° Southeast 482 555 35,000  Level FlightAware ADS-B
Mon 09:39:32 PM 52.4330 49.4230 116° Southeast 482 555 35,000  Level FlightAware ADS-B
Mon 09:40:12 PM 52.3950 49.5540 115° Southeast 484 557 35,000  Level FlightAware ADS-B
Mon 09:40:57 PM 52.3510 49.7020 116° Southeast 484 557 35,000  Level FlightAware ADS-B
Mon 09:41:32 PM 52.3170 49.8180 116° Southeast 486 559 35,000  Level FlightAware ADS-B
Mon 09:42:12 PM 52.2780 49.9490 116° Southeast 487 560 35,000  Level FlightAware ADS-B
Mon 09:43:07 PM 52.2250 50.1270 116° Southeast 487 560 35,000  Level FlightAware ADS-B
Mon 09:44:02 PM 52.1690 50.3110 116° Southeast 487 560 35,000  Level FlightAware ADS-B
Mon 09:44:47 PM 52.1230 50.4570 117° Southeast 487 560 35,000  Level FlightAware ADS-B
Mon 09:45:27 PM 52.0590 50.5600 135° Southeast 486 559 35,000  Level FlightAware ADS-B
Mon 09:46:07 PM 51.9860 50.6430 145° Southeast 484 557 35,000  Level FlightAware ADS-B
Mon 09:46:52 PM 51.9100 50.7260 146° Southeast 484 557 35,000  Level FlightAware ADS-B
Mon 09:47:33 PM 51.8280 50.8160 146° Southeast 487 560 35,000  Level FlightAware ADS-B
Mon 09:48:18 PM 51.7460 50.9060 146° Southeast 488 562 35,000  Level FlightAware ADS-B
Mon 09:48:58 PM 51.6710 50.9890 146° Southeast 489 563 35,000  Level FlightAware ADS-B
Mon 09:49:37 PM 51.5940 51.0710 147° Southeast 492 566 35,000  Level FlightAware ADS-B
Mon 09:50:17 PM 51.5190 51.1510 146° Southeast 495 570 35,000  Level FlightAware ADS-B
Mon 09:51:02 PM 51.4410 51.2580 139° Southeast 506 582 35,000  Level FlightAware ADS-B
Mon 09:51:42 PM 51.3960 51.3820 120° Southeast 510 587 35,000  Level FlightAware ADS-B
Mon 09:52:27 PM 51.3480 51.5330 117° Southeast 508 585 35,000  Level FlightAware ADS-B
Mon 09:53:07 PM 51.3060 51.6650 117° Southeast 508 585 35,000  Level FlightAware ADS-B
Mon 09:53:39 PM 51.2820 51.7370 118° Southeast 507 583 35,000  Level FlightAware ADS-B
Mon 09:54:23 PM 51.3060 51.6650 298° West 507 583 35,000  Level FlightAware ADS-B
Mon 09:56:02 PM 51.1200 52.2290 118° Southeast 506 582 35,000  Level FlightAware ADS-B
Mon 09:56:41 PM 51.0760 52.3610 118° Southeast 504 580 35,000  Level FlightAware ADS-B
Mon 09:57:16 PM 51.0410 52.4660 118° Southeast 505 581 35,000  Level FlightAware ADS-B
Mon 09:58:05 PM 50.9820 52.6410 118° Southeast 507 583 35,000  Level FlightAware ADS-B
Mon 09:59:01 PM 50.9210 52.8220 118° Southeast 509 586 35,000  Level FlightAware ADS-B
Mon 09:59:37 PM 50.8800 52.9410 119° Southeast 509 586 35,000  Level FlightAware ADS-B
Mon 10:01:54 PM 50.7470 53.3350 98° East 510 587 35,000  Level FlightAware ADS-B
Mon 10:02:00 PM 50.8383 53.4202 98° East  Level Estimated
Mon 10:02:29 PM 50.6880 53.4980 120° Southeast 512 589 35,000  Level FlightAware ADS-B
Mon 10:03:15 PM 50.6310 53.6620 119° Southeast 513 590 35,000  Level FlightAware ADS-B
Mon 10:03:56 PM 50.5870 53.7860 119° Southeast 513 590 35,000  Level FlightAware ADS-B
Mon 10:04:54 PM 50.5170 53.9830 119° Southeast 515 593 35,000  Level FlightAware ADS-B
Mon 10:05:31 PM 50.4720 54.1080 119° Southeast 516 594 35,000  Level FlightAware ADS-B
Mon 10:06:59 PM 50.3700 54.3920 119° Southeast 520 598 35,000  Level FlightAware ADS-B
Mon 10:07:40 PM 50.3250 54.5240 118° Southeast 522 601 35,000  Level FlightAware ADS-B
Mon 10:08:20 PM 50.2990 54.6740 105° East 524 603 35,000  Level FlightAware ADS-B
Mon 10:09:17 PM 50.3050 54.8870 87° East 524 603 35,000  Level FlightAware ADS-B
Mon 10:09:59 PM 50.3040 55.0470 90° East 524 603 35,000  Level FlightAware ADS-B
Mon 10:10:42 PM 50.3020 55.2000 91° East 524 603 35,000  Level FlightAware ADS-B
Mon 10:11:30 PM 50.3000 55.3820 91° East 524 603 35,000  Level FlightAware ADS-B
Mon 10:12:24 PM 50.2970 55.5920 91° East 522 601 35,000  Level FlightAware ADS-B
Mon 10:13:14 PM 50.2940 55.7810 91° East 521 600 35,000  Level FlightAware ADS-B
Mon 10:13:55 PM 50.2920 55.9350 91° East 521 600 35,000  Level FlightAware ADS-B
Mon 10:14:30 PM 50.2890 56.0570 92° East 521 600 35,000  Level FlightAware ADS-B
Mon 10:15:53 PM 50.2830 56.3710 92° East 518 596 35,000  Level FlightAware ADS-B
Mon 10:16:31 PM 50.2800 56.5110 92° East 517 595 35,000  Level FlightAware ADS-B
Mon 10:17:29 PM 50.2750 56.7370 92° East 516 594 35,000  Level FlightAware ADS-B
Mon 10:18:07 PM 50.2710 56.8740 93° East 517 595 35,000  Level FlightAware ADS-B
Mon 10:19:10 PM 50.2650 57.1110 92° East 517 595 35,000  Level FlightAware ADS-B
Mon 10:19:46 PM 50.2620 57.2520 92° East 517 595 35,000  Level FlightAware ADS-B
Mon 10:21:14 PM 50.2540 57.5830 92° East 517 595 35,000  Level FlightAware ADS-B
Mon 10:21:57 PM 50.2500 57.7250 92° East 517 595 35,000  Level FlightAware ADS-B
Mon 10:22:42 PM 50.2460 57.9140 92° East 517 595 35,000  Level FlightAware ADS-B
Mon 10:23:39 PM 50.2410 58.0910 92° East 517 595 35,000  Level FlightAware ADS-B
Mon 10:24:13 PM 50.2390 58.1990 92° East 517 595 35,000  Level FlightAware ADS-B
Mon 10:25:02 PM 50.2350 58.3550 92° East 517 595 35,000  Level FlightAware ADS-B
Mon 10:25:38 PM 50.2330 58.4690 92° East 517 595 35,000  Level FlightAware ADS-B
Mon 10:27:02 PM 50.2270 58.7360 92° East 517 595 35,000  Level FlightAware ADS-B
Mon 10:27:38 PM 50.2240 58.8500 92° East 517 595 35,000  Level FlightAware ADS-B
Mon 10:28:38 PM 50.2200 59.0410 92° East 517 595 35,000  Level FlightAware ADS-B
Mon 10:29:26 PM 50.2170 59.1930 92° East 517 595 35,000  Level FlightAware ADS-B
Mon 10:30:03 PM 50.2140 59.3110 92° East 517 595 35,000  Level FlightAware ADS-B
Mon 10:30:51 PM 50.2100 59.4630 92° East 517 595 35,000  Level FlightAware ADS-B
Mon 10:31:27 PM 50.2080 59.5770 92° East 517 595 35,000  Level FlightAware ADS-B
Mon 10:32:15 PM 50.2040 59.7300 92° East 517 595 35,000  Level FlightAware ADS-B
Mon 10:32:51 PM 50.2020 59.8440 92° East 517 595 35,000  Level FlightAware ADS-B
Mon 10:35:00 PM 50.1389 60.2626 103° East  Level Estimated
Mon 10:36:00 PM 50.1090 60.4569 103° East  Level Estimated
Mon 10:37:00 PM 50.0788 60.6510 104° East  Level Estimated
Mon 10:38:00 PM 50.0483 60.8448 104° East  Level Estimated
Mon 10:39:00 PM 50.0175 61.0384 104° East  Level Estimated
Mon 10:40:00 PM 49.9864 61.2317 104° East  Level Estimated
Mon 10:41:00 PM 49.9549 61.4248 104° East  Level Estimated
Mon 10:42:00 PM 49.9231 61.6176 104° East  Level Estimated
Mon 10:43:00 PM 49.8910 61.8102 104° East  Level Estimated
Mon 10:44:00 PM 49.8585 62.0025 105° East  Level Estimated
Mon 10:45:00 PM 49.8258 62.1945 105° East  Level Estimated
Mon 10:46:00 PM 49.7927 62.3863 105° East  Level Estimated
Mon 10:47:00 PM 49.7593 62.5778 105° East  Level Estimated
Mon 10:48:00 PM 49.7256 62.7691 105° East  Level Estimated
Mon 10:49:00 PM 49.6916 62.9601 105° East  Level Estimated
Mon 10:50:00 PM 49.6573 63.1508 105° East  Level Estimated
Mon 10:51:00 PM 49.6227 63.3413 106° East  Level Estimated
Mon 10:52:00 PM 49.5877 63.5315 106° East  Level Estimated
Mon 10:53:00 PM 49.5524 63.7214 106° East  Level Estimated
Mon 10:54:00 PM 49.5169 63.9110 106° East  Level Estimated
Mon 10:55:00 PM 49.4810 64.1004 106° East  Level Estimated
Mon 10:56:00 PM 49.4448 64.2894 106° East  Level Estimated
Mon 10:57:00 PM 49.4083 64.4782 106° East  Level Estimated
Mon 10:58:00 PM 49.3715 64.6668 107° East  Level Estimated
Mon 10:59:00 PM 49.3344 64.8550 107° East  Level Estimated
Mon 11:00:00 PM 49.2970 65.0429 107° East  Level Estimated
Mon 11:01:00 PM 49.2592 65.2306 107° East  Level Estimated
Mon 11:02:00 PM 49.2212 65.4180 107° East  Level Estimated
Mon 11:03:00 PM 49.1829 65.6051 107° East  Level Estimated
Mon 11:04:00 PM 49.1442 65.7919 107° East  Level Estimated
Mon 11:05:00 PM 49.1053 65.9784 108° East  Level Estimated
Mon 11:06:00 PM 49.0661 66.1646 108° East  Level Estimated
Mon 11:07:00 PM 49.0266 66.3505 108° East  Level Estimated
Mon 11:08:00 PM 48.9867 66.5361 108° East  Level Estimated
Mon 11:09:00 PM 48.9466 66.7214 108° East  Level Estimated
Mon 11:10:00 PM 48.9062 66.9064 108° East  Level Estimated
Mon 11:11:00 PM 48.8655 67.0912 108° East  Level Estimated
Mon 11:12:00 PM 48.8245 67.2756 109° East  Level Estimated
Mon 11:13:00 PM 48.7831 67.4597 109° East  Level Estimated
Mon 11:14:00 PM 48.7415 67.6435 109° East  Level Estimated
Mon 11:15:00 PM 48.6996 67.8270 109° East  Level Estimated
Mon 11:16:00 PM 48.6575 68.0102 109° East  Level Estimated
Mon 11:17:00 PM 48.6150 68.1931 109° East  Level Estimated
Mon 11:18:00 PM 48.5722 68.3757 109° East  Level Estimated
Mon 11:19:00 PM 48.5292 68.5580 110° East  Level Estimated
Mon 11:20:00 PM 48.4859 68.7400 110° East  Level Estimated
Mon 11:21:00 PM 48.4422 68.9216 110° East  Level Estimated
Mon 11:22:00 PM 48.3983 69.1030 110° East  Level Estimated
Mon 11:23:00 PM 48.3541 69.2840 110° East  Level Estimated
Mon 11:24:00 PM 48.3097 69.4647 110° East  Level Estimated
Mon 11:25:00 PM 48.2649 69.6451 110° East  Level Estimated
Mon 11:26:00 PM 48.2198 69.8252 111° Southeast  Level Estimated
Mon 11:27:00 PM 48.1745 70.0049 111° Southeast  Level Estimated
Mon 11:28:00 PM 48.1289 70.1844 111° Southeast  Level Estimated
Mon 11:29:00 PM 48.0830 70.3635 111° Southeast  Level Estimated
Mon 11:30:00 PM 48.0369 70.5423 111° Southeast  Level Estimated
Mon 11:31:00 PM 47.9905 70.7208 111° Southeast  Level Estimated
Mon 11:32:00 PM 47.9437 70.8990 111° Southeast  Level Estimated
Mon 11:33:00 PM 47.8968 71.0768 111° Southeast  Level Estimated
Mon 11:34:00 PM 47.8495 71.2543 112° Southeast  Level Estimated
Mon 11:35:00 PM 47.8020 71.4315 112° Southeast  Level Estimated
Mon 11:36:00 PM 47.7542 71.6084 112° Southeast  Level Estimated
Mon 11:37:00 PM 47.7061 71.7849 112° Southeast  Level Estimated
Mon 11:38:00 PM 47.6577 71.9611 112° Southeast  Level Estimated
Mon 11:39:00 PM 47.6091 72.1370 112° Southeast  Level Estimated
Mon 11:40:00 PM 47.5603 72.3126 112° Southeast  Level Estimated
Mon 11:41:00 PM 47.5111 72.4878 112° Southeast  Level Estimated
Mon 11:41:03 PM 46.8970 74.9250 112° Southeast 537 618 35,000  Level FlightAware ADS-B
Mon 11:41:43 PM 46.8640 75.0210 117° Southeast 536 617 35,000  Level FlightAware ADS-B
Mon 11:42:31 PM 46.8200 75.1540 116° Southeast 536 617 35,000  Level FlightAware ADS-B
Mon 11:43:07 PM 46.7870 75.2540 116° Southeast 536 617 35,000  Level FlightAware ADS-B
Mon 11:43:56 PM 46.7410 75.3890 116° Southeast 536 617 35,000  Level FlightAware ADS-B
Mon 11:44:32 PM 46.7080 75.4890 116° Southeast 536 617 35,000  Level FlightAware ADS-B
Mon 11:45:25 PM 46.5340 75.6990 140° Southeast 533 613 35,000  Level FlightAware ADS-B
Mon 11:46:12 PM 46.4660 75.8380 125° Southeast 531 611 35,000  Level FlightAware ADS-B
Mon 11:46:55 PM 46.4030 75.9650 126° Southeast 531 611 35,000  Level FlightAware ADS-B
Mon 11:47:35 PM 46.3470 76.0780 126° Southeast 530 610 35,000  Level FlightAware ADS-B
Mon 11:48:18 PM 46.4100 75.9510 306° West 531 611 35,000  Level FlightAware ADS-B
Mon 11:48:59 PM 46.2280 76.3190 125° Southeast 529 609 35,000  Level FlightAware ADS-B
Mon 11:49:43 PM 46.1640 76.4450 126° Southeast 529 609 35,000  Level FlightAware ADS-B
Mon 11:50:17 PM 46.1240 76.5280 125° Southeast 529 609 35,000  Level FlightAware ADS-B
Mon 11:50:59 PM 46.0550 76.6610 127° Southeast 533 613 35,000  Level FlightAware ADS-B
Mon 11:51:41 PM 45.9920 76.7840 126° Southeast 534 615 35,000  Level FlightAware ADS-B
Mon 11:52:19 PM 45.9380 76.8910 126° Southeast 534 615 35,000  Level FlightAware ADS-B
Mon 11:52:55 PM 45.8850 76.9950 126° Southeast 535 616 35,000  Level FlightAware ADS-B
Mon 11:53:39 PM 45.8200 77.1210 126° Southeast 535 616 35,000  Level FlightAware ADS-B
Mon 11:54:19 PM 45.7610 77.2340 127° Southeast 535 616 35,000  Level FlightAware ADS-B
Mon 11:55:03 PM 45.6970 77.3590 126° Southeast 534 615 35,000  Level FlightAware ADS-B
Mon 11:55:47 PM 45.6330 77.4820 127° Southeast 534 615 35,000  Level FlightAware ADS-B
Mon 11:56:27 PM 45.5730 77.5950 127° Southeast 534 615 35,000  Level FlightAware ADS-B
Mon 11:57:11 PM 45.5070 77.7210 127° Southeast 534 615 35,000  Level FlightAware ADS-B
Mon 11:57:47 PM 45.4550 77.8200 127° Southeast 534 615 35,000  Level FlightAware ADS-B
Mon 11:58:27 PM 45.3960 77.9330 127° Southeast 533 613 35,000  Level FlightAware ADS-B
Mon 11:59:12 PM 45.3290 78.0580 127° Southeast 534 615 35,000  Level FlightAware ADS-B
Mon 11:59:56 PM 45.2630 78.1810 127° Southeast 538 619 35,000  Level FlightAware ADS-B
Tue 12:00:41 AM 45.1950 78.3070 127° Southeast 541 623 35,000  Level FlightAware ADS-B
Tue 12:01:21 AM 45.1340 78.4190 128° Southeast 541 623 35,000  Level FlightAware ADS-B
Tue 12:01:56 AM 45.0760 78.5110 132° Southeast 539 620 35,000  Level FlightAware ADS-B
Tue 12:02:41 AM 44.9990 78.6250 134° Southeast 538 619 35,000  Level FlightAware ADS-B
Tue 12:03:21 AM 44.9300 78.7250 134° Southeast 538 619 35,000  Level FlightAware ADS-B
Tue 12:04:06 AM 44.8530 78.8370 134° Southeast 538 619 35,000  Level FlightAware ADS-B
Tue 12:04:46 AM 44.7840 78.9370 134° Southeast 538 619 35,000  Level FlightAware ADS-B
Tue 12:05:27 AM 44.7130 79.0400 134° Southeast 536 617 35,000  Level FlightAware ADS-B
Tue 12:06:10 AM 44.6370 79.1490 134° Southeast 535 616 35,000  Level FlightAware ADS-B
Tue 12:06:40 AM 44.5870 79.2200 135° Southeast 536 617 35,000  Level FlightAware ADS-B
Tue 12:07:27 AM 44.5040 79.3380 135° Southeast 538 619 35,000  Level FlightAware ADS-B
Tue 12:08:03 AM 44.4730 79.3820 135° Southeast 537 618 35,000  Level FlightAware ADS-B
Tue 12:08:43 AM 44.4050 79.4800 134° Southeast 539 620 35,000 225 Level FlightAware ADS-B
Tue 12:09:23 AM 44.3340 79.5800 135° Southeast 541 623 35,300 635 Climbing FlightAware ADS-B
Tue 12:10:08 AM 44.2520 79.6960 135° Southeast 550 633 35,900 892 Climbing FlightAware ADS-B
Tue 12:10:37 AM 44.2020 79.7660 135° Southeast 550 633 36,400 900 Climbing FlightAware ADS-B
Tue 12:11:28 AM 44.1160 79.8870 135° Southeast 543 625 37,100 477 Climbing FlightAware ADS-B
Tue 12:12:05 AM 44.0450 79.9860 135° Southeast 542 624 37,100  Level FlightAware ADS-B
Tue 12:12:45 AM 43.9760 80.0820 135° Southeast 541 623 37,100  Level FlightAware ADS-B
Tue 12:13:25 AM 43.9030 80.1820 135° Southeast 541 623 37,100  Level FlightAware ADS-B
Tue 12:14:10 AM 43.8260 80.2890 135° Southeast 541 623 37,100  Level FlightAware ADS-B
Tue 12:14:52 AM 43.7550 80.3870 135° Southeast 543 625 37,100  Level FlightAware ADS-B
Tue 12:15:31 AM 43.7160 80.4390 136° Southeast 545 627 37,100  Level FlightAware ADS-B
Tue 12:16:47 AM 43.5790 80.6280 135° Southeast 545 627 37,100  Level FlightAware ADS-B
Tue 12:17:23 AM 43.5240 80.7030 135° Southeast 545 627 37,100  Level FlightAware ADS-B
Tue 12:18:11 AM 43.4520 80.8030 135° Southeast 545 627 37,100  Level FlightAware ADS-B
Tue 12:18:47 AM 43.3970 80.8790 135° Southeast 545 627 37,100  Level FlightAware ADS-B
Tue 12:19:23 AM 43.3430 80.9540 135° Southeast 545 627 37,100  Level FlightAware ADS-B
Tue 12:20:11 AM 43.2700 81.0540 135° Southeast 545 627 37,100  Level FlightAware ADS-B
Tue 12:20:47 AM 43.2150 81.1280 136° Southeast 545 627 37,100  Level FlightAware ADS-B
Tue 12:21:24 AM 43.1590 81.2050 135° Southeast 545 627 37,100  Level FlightAware ADS-B
Tue 12:22:00 AM 43.1050 81.2800 135° Southeast 545 627 37,100  Level FlightAware ADS-B
Tue 12:22:48 AM 43.0320 81.3800 135° Southeast 545 627 37,100  Level FlightAware ADS-B
Tue 12:23:48 AM 42.9410 81.5040 135° Southeast 545 627 37,100  Level FlightAware ADS-B
Tue 12:24:24 AM 42.8860 81.5780 135° Southeast 545 627 37,100  Level FlightAware ADS-B
Tue 12:25:12 AM 42.8140 81.6780 134° Southeast 545 627 37,100 -29 Level FlightAware ADS-B
Tue 12:27:00 AM 42.7083 81.9572 117° Southeast  Level Estimated
Tue 12:28:00 AM 42.6493 82.1118 117° Southeast  Level Estimated
Tue 12:29:00 AM 42.5901 82.2662 117° Southeast  Level Estimated
Tue 12:30:00 AM 42.5307 82.4203 118° Southeast  Level Estimated
Tue 12:31:00 AM 42.4711 82.5741 118° Southeast  Level Estimated
Tue 12:32:00 AM 42.4113 82.7277 118° Southeast  Level Estimated
Tue 12:33:00 AM 42.3513 82.8809 118° Southeast  Level Estimated
Tue 12:34:00 AM 42.2911 83.0338 118° Southeast  Level Estimated
Tue 12:35:00 AM 42.2306 83.1864 118° Southeast  Level Estimated
Tue 12:36:00 AM 42.1700 83.3388 118° Southeast  Level Estimated
Tue 12:37:00 AM 42.1092 83.4908 118° Southeast  Level Estimated
Tue 12:38:00 AM 42.0481 83.6426 118° Southeast  Level Estimated
Tue 12:39:00 AM 41.9869 83.7940 119° Southeast  Level Estimated
Tue 12:40:00 AM 41.9255 83.9452 119° Southeast  Level Estimated
Tue 12:41:00 AM 41.8638 84.0961 119° Southeast  Level Estimated
Tue 12:42:00 AM 41.8020 84.2467 119° Southeast  Level Estimated
Tue 12:43:00 AM 41.7400 84.3970 119° Southeast  Level Estimated
Tue 12:44:00 AM 41.6778 84.5470 119° Southeast  Level Estimated
Tue 12:45:00 AM 41.6154 84.6967 119° Southeast  Level Estimated
Tue 12:46:00 AM 41.5528 84.8461 119° Southeast  Level Estimated
Tue 12:47:00 AM 41.4900 84.9953 119° Southeast  Level Estimated
Tue 12:48:00 AM 41.4270 85.1441 119° Southeast  Level Estimated
Tue 12:49:00 AM 41.3638 85.2927 120° Southeast  Level Estimated
Tue 12:50:00 AM 41.3004 85.4409 120° Southeast  Level Estimated
Tue 12:51:00 AM 41.2369 85.5889 120° Southeast  Level Estimated
Tue 12:52:00 AM 41.1731 85.7366 120° Southeast  Level Estimated
Tue 12:53:00 AM 41.1092 85.8840 120° Southeast  Level Estimated
Tue 12:54:00 AM 41.0450 86.0311 120° Southeast  Level Estimated
Tue 12:55:00 AM 40.9807 86.1780 120° Southeast  Level Estimated
Tue 12:56:00 AM 40.9162 86.3245 120° Southeast  Level Estimated
Tue 12:57:00 AM 40.8515 86.4708 120° Southeast  Level Estimated
Tue 12:58:00 AM 40.7867 86.6168 120° Southeast  Level Estimated
Tue 12:59:00 AM 40.7216 86.7624 120° Southeast  Level Estimated
Tue 01:00:00 AM 40.6564 86.9078 121° Southeast  Level Estimated
Tue 01:01:00 AM 40.5909 87.0530 121° Southeast  Level Estimated
Tue 01:02:00 AM 40.5253 87.1978 121° Southeast  Level Estimated
Tue 01:03:00 AM 40.4596 87.3423 121° Southeast  Level Estimated
Tue 01:04:00 AM 40.3936 87.4866 121° Southeast  Level Estimated
Tue 01:05:00 AM 40.3275 87.6306 121° Southeast  Level Estimated
Tue 01:06:00 AM 40.2611 87.7743 121° Southeast  Level Estimated
Tue 01:07:00 AM 40.1946 87.9177 121° Southeast  Level Estimated
Tue 01:08:00 AM 40.1280 88.0609 121° Southeast  Level Estimated
Tue 01:09:00 AM 40.0611 88.2037 121° Southeast  Level Estimated
Tue 01:10:00 AM 39.9941 88.3463 121° Southeast  Level Estimated
Tue 01:11:00 AM 39.9269 88.4886 122° Southeast  Level Estimated
Tue 01:12:00 AM 39.8595 88.6306 122° Southeast  Level Estimated
Tue 01:13:00 AM 39.7920 88.7724 122° Southeast  Level Estimated
Tue 01:14:00 AM 39.7243 88.9138 122° Southeast  Level Estimated
Tue 01:15:00 AM 39.6564 89.0550 122° Southeast  Level Estimated
Tue 01:16:00 AM 39.5883 89.1959 122° Southeast  Level Estimated
Tue 01:17:00 AM 39.5201 89.3365 122° Southeast  Level Estimated
Tue 01:18:00 AM 39.4517 89.4769 122° Southeast  Level Estimated
Tue 01:19:00 AM 39.3831 89.6170 122° Southeast  Level Estimated
Tue 01:20:00 AM 39.3144 89.7568 122° Southeast  Level Estimated
Tue 01:21:00 AM 39.2455 89.8963 122° Southeast  Level Estimated
Tue 01:22:00 AM 39.1764 90.0356 123° Southeast  Level Estimated
Tue 01:23:00 AM 39.1072 90.1745 123° Southeast  Level Estimated
Tue 01:24:00 AM 39.0378 90.3132 123° Southeast  Level Estimated
Tue 01:25:00 AM 38.9682 90.4517 123° Southeast  Level Estimated
Tue 01:26:00 AM 38.8985 90.5898 123° Southeast  Level Estimated
Tue 01:27:00 AM 38.8286 90.7277 123° Southeast  Level Estimated
Tue 01:28:00 AM 38.7586 90.8653 123° Southeast  Level Estimated
Tue 01:29:00 AM 38.6884 91.0027 123° Southeast  Level Estimated
Tue 01:30:00 AM 38.6180 91.1398 123° Southeast  Level Estimated
Tue 01:31:00 AM 38.5475 91.2766 123° Southeast  Level Estimated
Tue 01:32:00 AM 38.4768 91.4131 123° Southeast  Level Estimated
Tue 01:33:00 AM 38.4059 91.5494 124° Southeast  Level Estimated
Tue 01:34:00 AM 38.3349 91.6854 124° Southeast  Level Estimated
Tue 01:35:00 AM 38.2638 91.8211 124° Southeast  Level Estimated
Tue 01:36:00 AM 38.1924 91.9566 124° Southeast  Level Estimated
Tue 01:37:00 AM 38.1210 92.0918 124° Southeast  Level Estimated
Tue 01:38:00 AM 38.0493 92.2268 124° Southeast  Level Estimated
Tue 01:39:00 AM 37.9776 92.3615 124° Southeast  Level Estimated
Tue 01:40:00 AM 37.9056 92.4959 124° Southeast  Level Estimated
Tue 01:41:00 AM 37.8335 92.6300 124° Southeast  Level Estimated
Tue 01:42:00 AM 37.7613 92.7639 124° Southeast  Level Estimated
Tue 01:43:00 AM 37.6889 92.8976 124° Southeast  Level Estimated
Tue 01:44:00 AM 37.6164 93.0309 124° Southeast  Level Estimated
Tue 01:45:00 AM 37.5437 93.1640 125° Southeast  Level Estimated
Tue 01:46:00 AM 37.4708 93.2969 125° Southeast  Level Estimated
Tue 01:47:00 AM 37.3979 93.4295 125° Southeast  Level Estimated
Tue 01:48:00 AM 37.3247 93.5618 125° Southeast  Level Estimated
Tue 01:49:00 AM 37.2514 93.6939 125° Southeast  Level Estimated
Tue 01:50:00 AM 37.1780 93.8257 125° Southeast  Level Estimated
Tue 01:51:00 AM 37.1044 93.9573 125° Southeast  Level Estimated
Tue 01:52:00 AM 37.0307 94.0886 125° Southeast  Level Estimated
Tue 01:53:00 AM 36.9569 94.2196 125° Southeast  Level Estimated
Tue 01:54:00 AM 36.8829 94.3504 125° Southeast  Level Estimated
Tue 01:55:00 AM 36.8087 94.4810 125° Southeast  Level Estimated
Tue 01:56:00 AM 36.7344 94.6113 125° Southeast  Level Estimated
Tue 01:57:00 AM 36.6600 94.7413 125° Southeast  Level Estimated
Tue 01:58:00 AM 36.5854 94.8711 126° Southeast  Level Estimated
Tue 01:59:00 AM 36.5107 95.0006 126° Southeast  Level Estimated
Tue 02:00:00 AM 36.4358 95.1299 126° Southeast  Level Estimated
Tue 02:01:00 AM 36.3608 95.2589 126° Southeast  Level Estimated
Tue 02:02:00 AM 36.2857 95.3877 126° Southeast  Level Estimated
Tue 02:03:00 AM 36.2104 95.5163 126° Southeast  Level Estimated
Tue 02:04:00 AM 36.1350 95.6446 126° Southeast  Level Estimated
Tue 02:05:00 AM 36.0595 95.7726 126° Southeast  Level Estimated
Tue 02:06:00 AM 35.9838 95.9004 126° Southeast  Level Estimated
Tue 02:07:00 AM 35.9080 96.0280 126° Southeast  Level Estimated
Tue 02:08:00 AM 35.8320 96.1553 126° Southeast  Level Estimated
Tue 02:09:00 AM 35.7560 96.2824 126° Southeast  Level Estimated
Tue 02:10:00 AM 35.6797 96.4092 126° Southeast  Level Estimated
Tue 02:11:00 AM 35.6034 96.5358 127° Southeast  Level Estimated
Tue 02:12:00 AM 35.5269 96.6621 127° Southeast  Level Estimated
Tue 02:13:00 AM 35.4503 96.7882 127° Southeast  Level Estimated
Tue 02:14:00 AM 35.3735 96.9141 127° Southeast  Level Estimated
Tue 02:15:00 AM 35.2967 97.0397 127° Southeast  Level Estimated
Tue 02:16:00 AM 35.2197 97.1651 127° Southeast  Level Estimated
Tue 02:17:00 AM 35.1425 97.2902 127° Southeast  Level Estimated
Tue 02:18:00 AM 35.0653 97.4151 127° Southeast  Level Estimated
Tue 02:19:00 AM 34.9879 97.5398 127° Southeast  Level Estimated
Tue 02:20:00 AM 34.9104 97.6642 127° Southeast  Level Estimated
Tue 02:21:00 AM 34.8327 97.7884 127° Southeast  Level Estimated
Tue 02:22:00 AM 34.7549 97.9124 127° Southeast  Level Estimated
Tue 02:23:00 AM 34.6770 98.0361 127° Southeast  Level Estimated
Tue 02:24:00 AM 34.5990 98.1596 127° Southeast  Level Estimated
Tue 02:25:00 AM 34.5209 98.2829 128° Southeast  Level Estimated
Tue 02:26:00 AM 34.4426 98.4059 128° Southeast  Level Estimated
Tue 02:27:00 AM 34.3642 98.5287 128° Southeast  Level Estimated
Tue 02:28:00 AM 34.2857 98.6513 128° Southeast  Level Estimated
Tue 02:29:00 AM 34.2071 98.7737 128° Southeast  Level Estimated
Tue 02:30:00 AM 34.1283 98.8958 128° Southeast  Level Estimated
Tue 02:31:00 AM 34.0494 99.0177 128° Southeast  Level Estimated
Tue 02:32:00 AM 33.9704 99.1393 128° Southeast  Level Estimated
Tue 02:33:00 AM 33.8913 99.2608 128° Southeast  Level Estimated
Tue 02:34:00 AM 33.8121 99.3820 128° Southeast  Level Estimated
Tue 02:35:00 AM 33.7327 99.5030 128° Southeast  Level Estimated
Tue 02:36:00 AM 33.6533 99.6237 128° Southeast  Level Estimated
Tue 02:37:00 AM 33.5737 99.7443 128° Southeast  Level Estimated
Tue 02:38:00 AM 33.4939 99.8646 128° Southeast  Level Estimated
Tue 02:39:00 AM 33.4141 99.9847 129° Southeast  Level Estimated
Tue 02:40:00 AM 33.3342 100.1046 129° Southeast  Level Estimated
Tue 02:41:00 AM 33.2541 100.2242 129° Southeast  Level Estimated
Tue 02:41:32 AM 33.0740 104.2260 129° Southeast 485 558 33,100  Level FlightAware ADS-B
Tue 02:42:00 AM 33.1740 100.3437 129° Southeast  Level Estimated
Tue 02:42:14 AM 32.9780 104.2310 177° South 486 559 33,100  Level FlightAware ADS-B
Tue 02:42:58 AM 32.8800 104.2350 178° South 484 557 33,100  Level FlightAware ADS-B
Tue 02:43:32 AM 32.8020 104.2390 178° South 483 556 33,100  Level FlightAware ADS-B
Tue 02:44:14 AM 32.7090 104.2440 177° South 483 556 33,100  Level FlightAware ADS-B
Tue 02:44:58 AM 32.6110 104.2490 178° South 483 556 33,100  Level FlightAware ADS-B
Tue 02:45:31 AM 32.5380 104.2530 177° South 484 557 33,100  Level FlightAware ADS-B
Tue 02:46:14 AM 32.4400 104.2570 178° South 484 557 33,100  Level FlightAware ADS-B
Tue 02:46:54 AM 32.3510 104.2620 177° South 485 558 33,100  Level FlightAware ADS-B
Tue 02:47:38 AM 32.2520 104.2670 178° South 486 559 33,100  Level FlightAware ADS-B
Tue 02:48:18 AM 32.1620 104.2710 178° South 487 560 33,100 714 Level FlightAware ADS-B
Tue 02:49:02 AM 32.0630 104.2760 178° South 488 562 34,100 1,500 Climbing FlightAware ADS-B
Tue 02:49:46 AM 31.9660 104.2810 177° South 489 563 35,300 1,271 Climbing FlightAware ADS-B
Tue 02:50:27 AM 31.8720 104.2850 178° South 496 571 35,900 963 Climbing FlightAware ADS-B
Tue 02:51:07 AM 31.7790 104.2900 177° South 503 579 36,600 847 Climbing FlightAware ADS-B
Tue 02:51:52 AM 31.6720 104.2950 178° South 507 583 37,100 353 Climbing FlightAware ADS-B
Tue 02:52:32 AM 31.5770 104.2990 178° South 509 586 37,100  Level FlightAware ADS-B
Tue 02:53:16 AM 31.4740 104.3040 178° South 509 586 37,100  Level FlightAware ADS-B
Tue 02:53:54 AM 31.3840 104.3090 177° South 508 585 37,100  Level FlightAware ADS-B
Tue 02:54:32 AM 31.2950 104.3130 178° South 508 585 37,100  Level FlightAware ADS-B
Tue 02:55:12 AM 31.2020 104.3170 178° South 508 585 37,100  Level FlightAware ADS-B
Tue 02:55:57 AM 31.0960 104.3220 178° South 507 583 37,100  Level FlightAware ADS-B
Tue 02:56:32 AM 31.0130 104.3260 178° South 507 583 37,100  Level FlightAware ADS-B
Tue 02:57:12 AM 30.9190 104.3300 178° South 506 582 37,100  Level FlightAware ADS-B
Tue 02:57:56 AM 30.8190 104.3500 170° South 504 580 37,100  Level FlightAware ADS-B
Tue 02:58:32 AM 30.7380 104.3800 162° South 502 578 37,100  Level FlightAware ADS-B
Tue 02:59:14 AM 30.6460 104.4160 161° South 503 579 37,100  Level FlightAware ADS-B
Tue 02:59:56 AM 30.5520 104.4520 162° South 504 580 37,100  Level FlightAware ADS-B
Tue 03:01:47 AM 30.3440 104.5350 161° South 504 580 37,100  Level FlightAware ADS-B
Tue 03:02:26 AM 30.2620 104.5620 164° South 500 575 37,100  Level FlightAware ADS-B
Tue 03:03:12 AM 30.1240 104.6140 162° South 499 574 37,100  Level FlightAware ADS-B
Tue 03:03:54 AM 30.0330 104.6490 162° South 500 575 37,100  Level FlightAware ADS-B
Tue 03:04:38 AM 29.9310 104.6890 161° South 499 574 37,100  Level FlightAware ADS-B
Tue 03:05:20 AM 29.8420 104.7230 162° South 499 574 37,100  Level FlightAware ADS-B
Tue 03:06:03 AM 29.7610 104.7550 161° South 499 574 37,100  Level FlightAware ADS-B
Tue 03:06:39 AM 29.6940 104.7820 161° South 499 574 37,100  Level FlightAware ADS-B
Tue 03:07:27 AM 29.6050 104.8170 161° South 499 574 37,100  Level FlightAware ADS-B
Tue 03:08:03 AM 29.5390 104.8440 160° South 499 574 37,100  Level FlightAware ADS-B
Tue 03:08:52 AM 29.4480 104.8800 161° South 499 574 37,100  Level FlightAware ADS-B
Tue 03:09:28 AM 29.3810 104.9060 161° South 499 574 37,100  Level FlightAware ADS-B
Tue 03:10:16 AM 29.2920 104.9410 161° South 499 574 37,100  Level FlightAware ADS-B
Tue 03:10:52 AM 29.2250 104.9680 161° South 499 574 37,100  Level FlightAware ADS-B
Tue 03:11:29 AM 29.1560 104.9950 161° South 499 574 37,100  Level FlightAware ADS-B
Tue 03:12:19 AM 29.0640 105.0310 161° South 499 574 37,100  Level FlightAware ADS-B
Tue 03:12:55 AM 28.9970 105.0570 161° South 499 574 37,100  Level FlightAware ADS-B
Tue 03:13:47 AM 28.7350 105.1490 163° South 499 574 37,100  Level FlightAware ADS-B
Tue 03:14:36 AM 28.6440 105.1840 161° South 499 574 37,100  Level FlightAware ADS-B
Tue 03:16:10 AM 28.4700 105.2530 161° South 499 574 37,100  Level FlightAware ADS-B
Tue 03:16:47 AM 28.4010 105.2800 161° South 499 574 37,100  Level FlightAware ADS-B
Tue 03:17:36 AM 28.3100 105.3150 161° South 499 574 37,100  Level FlightAware ADS-B
Tue 03:18:13 AM 28.2420 105.3420 161° South 499 574 37,100  Level FlightAware ADS-B
Tue 03:19:01 AM 28.1530 105.3770 161° South 499 574 37,100  Level FlightAware ADS-B
Tue 03:19:38 AM 28.0840 105.4040 161° South 499 574 37,100  Level FlightAware ADS-B
Tue 03:20:38 AM 27.9730 105.4470 161° South 499 574 37,100  Level FlightAware ADS-B
Tue 03:21:14 AM 27.9060 105.4730 161° South 499 574 37,100  Level FlightAware ADS-B
Tue 03:22:02 AM 27.8170 105.5080 161° South 499 574 37,100  Level FlightAware ADS-B
Tue 03:22:38 AM 27.7500 105.5340 161° South 499 574 37,100  Level FlightAware ADS-B
Tue 03:25:00 AM 27.5811 105.8183 124° Southeast  Level Estimated
Tue 03:26:00 AM 27.5096 105.9381 124° Southeast  Level Estimated
Tue 03:27:00 AM 27.4379 106.0579 124° Southeast  Level Estimated
Tue 03:28:00 AM 27.3662 106.1774 124° Southeast  Level Estimated
Tue 03:29:00 AM 27.2943 106.2968 124° Southeast  Level Estimated
Tue 03:30:00 AM 27.2224 106.4160 124° Southeast  Level Estimated
Tue 03:31:00 AM 27.1503 106.5351 124° Southeast  Level Estimated
Tue 03:32:00 AM 27.0782 106.6541 124° Southeast  Level Estimated
Tue 03:33:00 AM 27.0059 106.7728 124° Southeast  Level Estimated
Tue 03:34:00 AM 26.9336 106.8915 124° Southeast  Level Estimated
Tue 03:35:00 AM 26.8611 107.0099 124° Southeast  Level Estimated
Tue 03:36:00 AM 26.7886 107.1283 124° Southeast  Level Estimated
Tue 03:37:00 AM 26.7160 107.2464 125° Southeast  Level Estimated
Tue 03:38:00 AM 26.6432 107.3644 125° Southeast  Level Estimated
Tue 03:39:00 AM 26.5704 107.4823 125° Southeast  Level Estimated
Tue 03:40:00 AM 26.4974 107.6000 125° Southeast  Level Estimated
Tue 03:41:00 AM 26.4244 107.7176 125° Southeast  Level Estimated
Tue 03:42:00 AM 26.3513 107.8350 125° Southeast  Level Estimated
Tue 03:43:00 AM 26.2781 107.9523 125° Southeast  Level Estimated
Tue 03:44:00 AM 26.2048 108.0694 125° Southeast  Level Estimated
Tue 03:45:00 AM 26.1313 108.1864 125° Southeast  Level Estimated
Tue 03:46:00 AM 26.0578 108.3032 125° Southeast  Level Estimated
Tue 03:47:00 AM 25.9842 108.4199 125° Southeast  Level Estimated
Tue 03:48:00 AM 25.9105 108.5365 125° Southeast  Level Estimated
Tue 03:49:00 AM 25.8368 108.6528 125° Southeast  Level Estimated
Tue 03:50:00 AM 25.7629 108.7691 125° Southeast  Level Estimated
Tue 03:51:00 AM 25.6889 108.8852 125° Southeast  Level Estimated
Tue 03:52:00 AM 25.6148 109.0012 125° Southeast  Level Estimated
Tue 03:53:00 AM 25.5407 109.1170 125° Southeast  Level Estimated
Tue 03:54:00 AM 25.4664 109.2326 125° Southeast  Level Estimated
Tue 03:55:00 AM 25.3921 109.3482 125° Southeast  Level Estimated
Tue 03:56:00 AM 25.3177 109.4635 125° Southeast  Level Estimated
Tue 03:57:00 AM 25.2431 109.5788 126° Southeast  Level Estimated
Tue 03:58:00 AM 25.1685 109.6939 126° Southeast  Level Estimated
Tue 03:59:00 AM 25.0938 109.8089 126° Southeast  Level Estimated
Tue 03:59:34 AM 25.0450 110.3000 126° Southeast 476 548 37,100  Level FlightAware ADS-B
Tue 04:00:00 AM 25.0191 109.9237 126° Southeast  Level Estimated
Tue 04:00:13 AM 25.0080 110.3690 121° Southeast 476 548 37,100  Level FlightAware ADS-B
Tue 04:01:01 AM 24.9610 110.4540 121° Southeast 476 548 37,100  Level FlightAware ADS-B
Tue 04:01:38 AM 24.9260 110.5200 120° Southeast 476 548 37,100  Level FlightAware ADS-B
Tue 04:02:38 AM 24.8680 110.6260 121° Southeast 476 548 37,100  Level FlightAware ADS-B
Tue 04:03:14 AM 24.8330 110.6900 121° Southeast 476 548 37,100  Level FlightAware ADS-B
Tue 04:04:02 AM 24.7870 110.7740 121° Southeast 476 548 37,100 -813 Level FlightAware ADS-B
Tue 04:04:50 AM 24.5800 110.8520 161° South 469 540 35,800 -813 Descending FlightAware ADS-B
Tue 04:05:38 AM 24.5200 110.9240 132° Southeast 469 540 35,800  Level FlightAware ADS-B
Tue 04:06:26 AM 24.4600 110.9950 133° Southeast 469 540 35,800 -457 Level FlightAware ADS-B
Tue 04:07:10 AM 24.3700 111.0920 136° Southeast 473 544 35,100 -525 Descending FlightAware ADS-B
Tue 04:07:46 AM 24.3240 111.1450 134° Southeast 473 544 35,100  Level FlightAware ADS-B
Tue 04:08:22 AM 24.2790 111.1990 132° Southeast 473 544 35,100  Level FlightAware ADS-B
Tue 04:09:23 AM 24.1690 111.3170 136° Southeast 461 531 35,100  Level FlightAware ADS-B
Tue 04:10:00 AM 24.1220 111.3700 134° Southeast 461 531 35,100 -659 Level FlightAware ADS-B
Tue 04:10:45 AM 24.0370 111.4560 137° Southeast 462 532 34,200 -698 Descending FlightAware ADS-B
Tue 04:11:26 AM 23.9810 111.5180 135° Southeast 460 529 34,100 -404 Descending FlightAware ADS-B
Tue 04:12:14 AM 23.9170 111.5860 136° Southeast 455 524 33,600 -811 Descending FlightAware ADS-B
Tue 04:12:40 AM 23.8810 111.6560 119° Southeast 454 522 33,100 -400 Descending FlightAware ADS-B
Tue 04:13:29 AM 23.8240 111.7580 121° Southeast 472 543 33,100  Level FlightAware ADS-B
Tue 04:14:21 AM 23.7660 111.8640 121° Southeast 475 547 33,100  Level FlightAware ADS-B
Tue 04:14:57 AM 23.7240 111.9380 122° Southeast 476 548 33,100  Level FlightAware ADS-B
Tue 04:17:02 AM 23.6190 112.1300 121° Southeast 478 550 33,100 -542 Level FlightAware ADS-B
Tue 04:17:43 AM 23.5360 112.2780 121° Southeast 473 544 31,600 -1,467 Descending FlightAware ADS-B
Tue 04:18:32 AM 23.4800 112.3770 122° Southeast 470 541 30,900 -857 Descending FlightAware ADS-B
Tue 04:19:14 AM 23.4330 112.4610 121° Southeast 468 539 30,300 -911 Descending FlightAware ADS-B
Tue 04:19:51 AM 23.3910 112.5350 122° Southeast 467 537 29,700 -779 Descending FlightAware ADS-B
Tue 04:20:31 AM 23.3460 112.6170 121° Southeast 458 527 29,300 -375 Descending FlightAware ADS-B
Tue 04:21:27 AM 23.2840 112.7260 122° Southeast 454 522 29,100 -122 Descending FlightAware ADS-B
Tue 04:22:09 AM 23.2380 112.8080 121° Southeast 454 522 29,100  Level FlightAware ADS-B
Tue 04:22:49 AM 23.1950 112.8850 121° Southeast 458 527 29,100  Level FlightAware ADS-B
Tue 04:23:33 AM 23.1450 112.9730 122° Southeast 458 527 29,100  Level FlightAware ADS-B
Tue 04:24:13 AM 23.1000 113.0510 122° Southeast 457 526 29,100  Level FlightAware ADS-B
Tue 04:24:55 AM 23.0530 113.1350 121° Southeast 458 527 29,100  Level FlightAware ADS-B
Tue 04:25:27 AM 23.0070 113.1870 134° Southeast 456 525 29,100 -411 Level FlightAware ADS-B
Tue 04:26:08 AM 22.9290 113.2230 157° South 452 520 28,600 -714 Descending FlightAware ADS-B
Tue 04:26:51 AM 22.8440 113.2530 162° South 444 511 28,100 -795 Descending FlightAware ADS-B
Tue 04:27:31 AM 22.7650 113.2800 163° South 438 504 27,500 -805 Descending FlightAware ADS-B
Tue 04:28:13 AM 22.6850 113.3070 163° South 431 496 27,000 -907 Descending FlightAware ADS-B
Tue 04:28:57 AM 22.6000 113.3370 162° South 426 490 26,200 -975 Descending FlightAware ADS-B
Tue 04:29:33 AM 22.5340 113.3600 162° South 420 483 25,700 -868 Descending FlightAware ADS-B
Tue 04:30:13 AM 22.4600 113.3850 163° South 415 478 25,100 -815 Descending FlightAware ADS-B
Tue 04:30:54 AM 22.3860 113.4100 163° South 412 474 24,600 -779 Descending FlightAware ADS-B
Tue 04:31:30 AM 22.3200 113.4330 162° South 409 471 24,100 -486 Descending FlightAware ADS-B
Tue 04:32:08 AM 22.2590 113.4540 162° South 408 470 24,000 -61 Descending FlightAware ADS-B
Tue 04:33:08 AM 22.1670 113.4860 162° South 408 470 24,000  Level FlightAware ADS-B
Tue 04:33:44 AM 22.1120 113.5060 161° South 408 470 24,000 -485 Level FlightAware ADS-B
Tue 04:34:28 AM 22.0490 113.5310 160° South 23,000 -501 Descending FlightAware ADS-B
Tue 04:37:00 AM 22.2379 113.8096 54° Northeast  Level Estimated
Tue 04:38:00 AM 22.3089 113.9146 54° Northeast  Level Estimated
Tue 04:39:00 AM 22.3089 113.9146 110° East  Level Estimated
Tue 04:40:00 AM 22.3089 113.9146 110° East  Level Estimated
Tue 04:41:00 AM 22.3089 113.9146 110° East  Level Estimated
Tue 04:42:00 AM 22.3089 113.9146 110° East  Level Estimated
Tue 04:43:00 AM 22.3089 113.9146 110° East  Level Estimated
Tue 04:44:00 AM 22.3089 113.9146 110° East  Level Estimated
Tue 04:45:00 AM 22.3089 113.9146 110° East  Level Estimated
Tue 04:46:00 AM 22.3089 113.9146 110° East  Level Estimated
Tue 04:47:00 AM 22.3089 113.9146 110° East  Level Estimated
Tue 04:48:00 AM 22.3089 113.9146 110° East  Level Estimated
Tue 04:49:00 AM 22.3089 113.9146 110° East  Level Estimated
Tue 04:50:00 AM 22.3089 113.9146 110° East  Level Estimated
Tue 04:51:00 AM 22.3089 113.9146 110° East  Level Estimated
Tue 04:51:41 AM 21.8900 113.8900 110° East 325 374 15,000  Level FlightAware ADS-B
Tue 04:52:33 AM 21.9590 113.9310 29° Northeast 330 380 14,900 -200 Descending FlightAware ADS-B
Tue 04:53:11 AM 22.0000 113.9560 29° Northeast 326 375 14,700 -462 Descending FlightAware ADS-B
Tue 04:53:51 AM 22.0590 113.9940 31° Northeast 328 377 14,300 -545 Descending FlightAware ADS-B
Tue 04:54:06 AM 22.0690 114.0070 50° Northeast 327 376 14,200 -1,111 Descending FlightAware ADS-B
Tue 04:54:18 AM 22.0820 114.0380 66° East 323 372 13,800 -1,400 Descending FlightAware ADS-B
Tue 04:55:06 AM 22.1010 114.1010 72° East 321 369 12,800 -1,259 Descending FlightAware ADS-B
Tue 04:55:39 AM 22.1040 114.1560 87° East 314 361 12,100 -1,200 Descending FlightAware ADS-B
Tue 04:56:26 AM 22.1080 114.2370 87° East 308 354 11,200 -1,043 Descending FlightAware ADS-B
Tue 04:57:11 AM 22.1090 114.2870 89° East 306 352 10,500 -1,083 Descending FlightAware ADS-B
Tue 04:57:38 AM 22.1110 114.3300 87° East 304 350 9,900 -712 Descending FlightAware ADS-B
Tue 04:58:10 AM 22.1130 114.3810 88° East 301 346 9,800 -107 Descending FlightAware ADS-B
Tue 04:58:34 AM 22.1140 114.4120 88° East 301 346 9,800  Level FlightAware ADS-B
Tue 04:58:58 AM 22.1150 114.4420 88° East 301 346 9,800 -1,063 Level FlightAware ADS-B
Tue 05:01:00 AM 22.2100 114.1845 292° West  Level Estimated
Tue 05:02:00 AM 22.2565 114.0577 292° West  Level Estimated
Tue 05:02:31 AM 22.4070 114.2310 292° West 213 245 5,600  Level FlightAware ADS-B
Tue 05:02:43 AM 22.4100 114.2180 284° West 209 241 5,500 -857 Descending FlightAware ADS-B
Tue 05:03:13 AM 22.4040 114.1880 258° West 207 238 5,000 -1,034 Descending FlightAware ADS-B
Tue 05:03:41 AM 22.3960 114.1620 252° West 204 235 4,500 -1,116 Descending FlightAware ADS-B
Tue 05:03:56 AM 22.3910 114.1460 251° West 204 235 4,200 -1,154 Descending FlightAware ADS-B
Tue 05:04:07 AM 22.3870 114.1350 249° West 202 232 4,000 -1,091 Descending FlightAware ADS-B
Tue 05:04:29 AM 22.3810 114.1140 253° West 199 229 3,600 -1,105 Descending FlightAware ADS-B
Tue 05:04:45 AM 22.3760 114.1000 249° West 198 228 3,300 -1,091 Descending FlightAware ADS-B
Tue 05:05:13 AM 22.3670 114.0730 250° West 195 224 2,800 -947 Descending FlightAware ADS-B
Tue 05:05:42 AM 22.3590 114.0480 251° West 194 223 2,400 -964 Descending FlightAware ADS-B
Tue 05:06:09 AM 22.3510 114.0230 251° West 175 201 1,900 -873 Descending FlightAware ADS-B
Tue 05:06:37 AM 22.3440 114.0020 250° West 173 199 1,600 -857 Descending FlightAware ADS-B
Tue 05:07:05 AM 22.3370 113.9790 252° West 156 180 1,100 -857 Descending FlightAware ADS-B
Tue 05:07:33 AM 22.3300 113.9580 250° West 152 175 800 -750 Descending FlightAware ADS-B
Tue 05:08:01 AM 22.3240 113.9380 252° West 154 177 400 -878 Descending FlightAware ADS-B
Tue 05:08:14 AM 22.3210 113.9290 250° West 156 180 200 -923 Descending FlightAware ADS-B
Tue 05:08:40 AM 22.3160 113.9130 251° West 82 94 -462 Descending FlightAware ADS-B
Tue 05:08:58 AM 22.3140 113.9080 247° West 43 49  Level FlightAware ADS-B
Tue 05:09:08 AM 22.3130 113.9070 223° Southwest 34 39  Level FlightAware ADS-B
Tue 05:09:30 AM 22.3110 113.9050 223° Southwest 33 38  Level FlightAware ADS-B
Tue 05:09:57 AM 22.3110 113.9060 90° East 31 36  Level FlightAware ADS-B
Tue 05:10:26 AM 22.3120 113.9080 62° Northeast 18 21  Level FlightAware ADS-B
Tue 05:10:43 AM 22.3120 113.9100 90° East 21 24  Level FlightAware ADS-B
Tue 05:11:37 AM 22.3140 113.9150 67° East 27 31  Level FlightAware ADS-B
Tue 05:12:06 AM 22.3150 113.9190 75° East 26 30  Level FlightAware ADS-B
Tue 05:12:31 AM 22.3140 113.9190 180° South 30 35  Level FlightAware ADS-B
Tue 05:12:46 AM 22.3130 113.9200 137° Southeast 16 18  Level FlightAware ADS-B
Tue 05:13:14 AM 22.3100 113.9200 180° South 19 22  Level FlightAware ADS-B
Tue 05:13:29 AM 22.3090 113.9210 137° Southeast 19 22  Level FlightAware ADS-B
Tue 05:13:58 AM 22.3070 113.9220 155° Southeast 24 28  Level FlightAware ADS-B
Tue 05:14:26 AM 22.3070 113.9230 90° East 31 36  Level FlightAware ADS-B
Tue 05:14:53 AM 22.3080 113.9250 62° Northeast 29 33  Level FlightAware ADS-B
Tue 05:15:31 AM 22.3080 113.9260 90° East 20 23  Level FlightAware ADS-B
Tue 05:16:07 AM 22.3080 113.9270 90° East 20 23  Level FlightAware ADS-B
Tue 05:16:23 AM 22.3090 113.9270 360° North 18 21  Level FlightAware ADS-B
Tue 05:17:18 AM 22.3110 113.9280 25° Northeast 18 21  Level FlightAware ADS-B
Tue 05:18:01 AM 22.3120 113.9290 43° Northeast 14 16  Level FlightAware ADS-B
Tue 05:18:59 AM 22.3120 113.9300 90° East 2 2  Level FlightAware ADS-B
Tue 05:21:00 AM 22.3089 113.9146 258° West  Level Estimated
Tue 05:21:04 AM 22.3120 113.9310 258° West 21 24  Level FlightAware ADS-B
Tue 05:21:46 AM 22.3130 113.9330 62° Northeast 24 28  Level FlightAware ADS-B
Tue 05:22:14 AM 22.3130 113.9340 90° East 17 20  Level FlightAware ADS-B

Login

Don't have an account? Register now (free) for customized features, flight alerts, and more!